GIA874 WIII-KLAX
Flight info
| Callsign | GIA874 |
|---|---|
| Flight time | N/A |
| Altitude | 33000 |
| Route | DCT AMBOY P648 VJN/N0489F350 M646 BALAY/N0481F370 M646 MIA B462 CAB R597 VIGOR A590 OLDUP/N0466F390 A590 BUBDO Y83 MOE A590 POROT OTR11 LEPKI DCT 40N160E 42N170E 42N180E/N0469F410 40N170W 39N160W 39N150W 39N140W 38N130W ALLBE PIRAT BURGL IRNMN2 |
| Aircraft | A339/H-SADE1E2E3GHIJ3J5M1P2RWXY/LB2D1 |
Departure
| Time | 2026-05-06 05:03 |
|---|---|
| Airport | Soekarno-Hatta International Airport (WIII) |
Arrival
| Time | N/A |
|---|---|
| Airport | Los Angeles International Airport (KLAX) |
| Time | Latitude | Longitude | Altitude | Speed | Heading |
|---|---|---|---|---|---|
| 2026-05-06 04:35 | -6.11757 | 106.66458 | 34 ft | 0 kts | 158° |
| 2026-05-06 04:50 | -6.11746 | 106.66454 | 33 ft | 2 kts | 158° |
| 2026-05-06 04:50 | -6.11732 | 106.66448 | 33 ft | 2 kts | 158° |
| 2026-05-06 04:50 | -6.11718 | 106.66443 | 33 ft | 2 kts | 160° |
| 2026-05-06 04:50 | -6.11703 | 106.66440 | 33 ft | 2 kts | 186° |
| 2026-05-06 04:51 | -6.11688 | 106.66444 | 33 ft | 2 kts | 207° |
| 2026-05-06 04:51 | -6.11676 | 106.66452 | 33 ft | 2 kts | 228° |
| 2026-05-06 04:51 | -6.11668 | 106.66464 | 33 ft | 0 kts | 247° |
| 2026-05-06 04:51 | -6.11666 | 106.66468 | 33 ft | 0 kts | 249° |
| 2026-05-06 04:54 | -6.11670 | 106.66454 | 33 ft | 5 kts | 263° |
| 2026-05-06 04:54 | -6.11639 | 106.66412 | 33 ft | 10 kts | 335° |
| 2026-05-06 04:54 | -6.11552 | 106.66378 | 33 ft | 15 kts | 338° |
| 2026-05-06 04:55 | -6.11436 | 106.66333 | 33 ft | 19 kts | 339° |
| 2026-05-06 04:55 | -6.11346 | 106.66281 | 33 ft | 8 kts | 289° |
| 2026-05-06 04:55 | -6.11365 | 106.66215 | 33 ft | 13 kts | 247° |
| 2026-05-06 04:55 | -6.11406 | 106.66112 | 33 ft | 18 kts | 248° |
| 2026-05-06 04:56 | -6.11460 | 106.65976 | 33 ft | 23 kts | 248° |
| 2026-05-06 04:56 | -6.11518 | 106.65827 | 37 ft | 21 kts | 248° |
| 2026-05-06 04:56 | -6.11573 | 106.65689 | 40 ft | 20 kts | 248° |
| 2026-05-06 04:56 | -6.11625 | 106.65557 | 42 ft | 20 kts | 248° |
| 2026-05-06 04:57 | -6.11681 | 106.65416 | 41 ft | 23 kts | 248° |
| 2026-05-06 04:57 | -6.11744 | 106.65257 | 41 ft | 25 kts | 248° |
| 2026-05-06 04:57 | -6.11807 | 106.65097 | 42 ft | 24 kts | 248° |
| 2026-05-06 04:57 | -6.11870 | 106.64938 | 42 ft | 24 kts | 248° |
| 2026-05-06 04:58 | -6.11935 | 106.64775 | 41 ft | 25 kts | 248° |
| 2026-05-06 04:58 | -6.12000 | 106.64609 | 40 ft | 25 kts | 248° |
| 2026-05-06 04:58 | -6.12066 | 106.64442 | 42 ft | 24 kts | 248° |
| 2026-05-06 04:58 | -6.12132 | 106.64285 | 43 ft | 24 kts | 246° |
| 2026-05-06 04:59 | -6.12194 | 106.64127 | 44 ft | 23 kts | 248° |
| 2026-05-06 04:59 | -6.12251 | 106.63982 | 46 ft | 18 kts | 251° |
| 2026-05-06 04:59 | -6.12228 | 106.63895 | 46 ft | 5 kts | 326° |
| 2026-05-06 04:59 | -6.12225 | 106.63892 | 46 ft | 0 kts | 330° |
| 2026-05-06 05:00 | -6.12217 | 106.63889 | 46 ft | 3 kts | 331° |
| 2026-05-06 05:00 | -6.12179 | 106.63881 | 46 ft | 7 kts | 8° |
| 2026-05-06 05:00 | -6.12120 | 106.63918 | 46 ft | 12 kts | 38° |
| 2026-05-06 05:01 | -6.12062 | 106.63983 | 45 ft | 10 kts | 67° |
| 2026-05-06 05:01 | -6.12056 | 106.63997 | 44 ft | 0 kts | 68° |
| 2026-05-06 05:02 | -6.12047 | 106.64018 | 44 ft | 19 kts | 68° |
| 2026-05-06 05:02 | -6.11917 | 106.64345 | 41 ft | 80 kts | 68° |
| 2026-05-06 05:02 | -6.11639 | 106.65040 | 39 ft | 132 kts | 68° |
| 2026-05-06 05:02 | -6.11237 | 106.66053 | 35 ft | 176 kts | 67° |
| 2026-05-06 05:03 | -6.10757 | 106.67246 | 394 ft | 187 kts | 67° |
| 2026-05-06 05:03 | -6.10292 | 106.68459 | 984 ft | 186 kts | 67° |
| 2026-05-06 05:03 | -6.09653 | 106.69564 | 1473 ft | 181 kts | 48° |
| 2026-05-06 05:03 | -6.08788 | 106.70476 | 1816 ft | 182 kts | 44° |
| 2026-05-06 05:04 | -6.07880 | 106.71358 | 2143 ft | 183 kts | 44° |
| 2026-05-06 05:04 | -6.06944 | 106.72263 | 2381 ft | 191 kts | 44° |
| 2026-05-06 05:04 | -6.05956 | 106.73222 | 2600 ft | 201 kts | 46° |
| 2026-05-06 05:04 | -6.04930 | 106.74246 | 2804 ft | 213 kts | 46° |
| 2026-05-06 05:05 | -6.03856 | 106.75335 | 3026 ft | 225 kts | 45° |
| 2026-05-06 05:05 | -6.02716 | 106.76467 | 3273 ft | 237 kts | 45° |
| 2026-05-06 05:05 | -6.01509 | 106.77651 | 3516 ft | 250 kts | 46° |
| 2026-05-06 05:05 | -6.00233 | 106.78931 | 3757 ft | 263 kts | 46° |
| 2026-05-06 05:06 | -5.98933 | 106.80229 | 4163 ft | 268 kts | 46° |
| 2026-05-06 05:06 | -5.97600 | 106.81541 | 4645 ft | 269 kts | 47° |
| 2026-05-06 05:06 | -5.96326 | 106.82918 | 4934 ft | 270 kts | 53° |
| 2026-05-06 05:06 | -5.95255 | 106.84497 | 5213 ft | 273 kts | 60° |
| 2026-05-06 05:07 | -5.94322 | 106.86137 | 5756 ft | 272 kts | 62° |
| 2026-05-06 05:07 | -5.93402 | 106.87798 | 6239 ft | 273 kts | 62° |
| 2026-05-06 05:07 | -5.92500 | 106.89471 | 6664 ft | 275 kts | 62° |
| 2026-05-06 05:07 | -5.91568 | 106.91163 | 7048 ft | 277 kts | 61° |
| 2026-05-06 05:08 | -5.90634 | 106.92844 | 7462 ft | 279 kts | 62° |
| 2026-05-06 05:08 | -5.89690 | 106.94549 | 7880 ft | 281 kts | 62° |
| 2026-05-06 05:08 | -5.88738 | 106.96275 | 8331 ft | 283 kts | 62° |
| 2026-05-06 05:08 | -5.87739 | 106.97997 | 8874 ft | 286 kts | 53° |
| 2026-05-06 05:09 | -5.86299 | 106.99380 | 9454 ft | 290 kts | 39° |
| 2026-05-06 05:09 | -5.84685 | 107.00623 | 10132 ft | 292 kts | 37° |
| 2026-05-06 05:09 | -5.83064 | 107.01846 | 10603 ft | 299 kts | 37° |
| 2026-05-06 05:09 | -5.81357 | 107.03130 | 10706 ft | 312 kts | 37° |
| 2026-05-06 05:10 | -5.79570 | 107.04481 | 10807 ft | 325 kts | 38° |
| 2026-05-06 05:10 | -5.77724 | 107.05882 | 10900 ft | 337 kts | 38° |
| 2026-05-06 05:10 | -5.75846 | 107.07313 | 11018 ft | 348 kts | 38° |
| 2026-05-06 05:10 | -5.73879 | 107.08817 | 11207 ft | 359 kts | 38° |
| 2026-05-06 05:11 | -5.71871 | 107.10356 | 11391 ft | 369 kts | 38° |
| 2026-05-06 05:11 | -5.69797 | 107.11945 | 11577 ft | 379 kts | 39° |
| 2026-05-06 05:11 | -5.67680 | 107.13567 | 11891 ft | 385 kts | 38° |
| 2026-05-06 05:11 | -5.65543 | 107.15202 | 12325 ft | 387 kts | 39° |
| 2026-05-06 05:12 | -5.63402 | 107.16842 | 12759 ft | 389 kts | 38° |
| 2026-05-06 05:12 | -5.61227 | 107.18507 | 13174 ft | 391 kts | 39° |
| 2026-05-06 05:12 | -5.59056 | 107.20171 | 13587 ft | 393 kts | 39° |
| 2026-05-06 05:12 | -5.56881 | 107.21837 | 14018 ft | 395 kts | 38° |
| 2026-05-06 05:13 | -5.54671 | 107.23531 | 14432 ft | 397 kts | 38° |
| 2026-05-06 05:13 | -5.52488 | 107.25203 | 14816 ft | 398 kts | 38° |
| 2026-05-06 05:13 | -5.50280 | 107.26894 | 15198 ft | 400 kts | 38° |
| 2026-05-06 05:13 | -5.48070 | 107.28585 | 15571 ft | 402 kts | 38° |
| 2026-05-06 05:14 | -5.45839 | 107.30294 | 15958 ft | 404 kts | 38° |
| 2026-05-06 05:14 | -5.43593 | 107.32014 | 16349 ft | 406 kts | 38° |
| 2026-05-06 05:14 | -5.41335 | 107.33742 | 16724 ft | 407 kts | 38° |
| 2026-05-06 05:14 | -5.39064 | 107.35480 | 17100 ft | 409 kts | 38° |
| 2026-05-06 05:15 | -5.36816 | 107.37200 | 17449 ft | 411 kts | 38° |
| 2026-05-06 05:15 | -5.34532 | 107.38947 | 17775 ft | 413 kts | 38° |
| 2026-05-06 05:15 | -5.32235 | 107.40701 | 18118 ft | 415 kts | 38° |
| 2026-05-06 05:15 | -5.29918 | 107.42471 | 18468 ft | 417 kts | 38° |
| 2026-05-06 05:16 | -5.27611 | 107.44236 | 18804 ft | 419 kts | 38° |
| 2026-05-06 05:16 | -5.25308 | 107.45998 | 19119 ft | 421 kts | 38° |
| 2026-05-06 05:16 | -5.22944 | 107.47807 | 19440 ft | 423 kts | 38° |
| 2026-05-06 05:16 | -5.20594 | 107.49606 | 19747 ft | 425 kts | 38° |
| 2026-05-06 05:17 | -5.18266 | 107.51385 | 20068 ft | 426 kts | 38° |
| 2026-05-06 05:17 | -5.15876 | 107.53213 | 20368 ft | 428 kts | 38° |
| 2026-05-06 05:17 | -5.13524 | 107.55011 | 20655 ft | 430 kts | 38° |
| 2026-05-06 05:17 | -5.11127 | 107.56843 | 20939 ft | 431 kts | 38° |
| 2026-05-06 05:18 | -5.08718 | 107.58684 | 21223 ft | 433 kts | 38° |
| 2026-05-06 05:18 | -5.06325 | 107.60512 | 21501 ft | 434 kts | 38° |
| 2026-05-06 05:18 | -5.03921 | 107.62348 | 21772 ft | 436 kts | 38° |
| 2026-05-06 05:18 | -5.01492 | 107.64204 | 22046 ft | 437 kts | 38° |
| 2026-05-06 05:19 | -4.99078 | 107.66046 | 22307 ft | 439 kts | 38° |
| 2026-05-06 05:19 | -4.96645 | 107.67905 | 22554 ft | 441 kts | 38° |
| 2026-05-06 05:19 | -4.94179 | 107.69788 | 22800 ft | 443 kts | 38° |
| 2026-05-06 05:19 | -4.91726 | 107.71661 | 23020 ft | 445 kts | 38° |
| 2026-05-06 05:20 | -4.89258 | 107.73547 | 23253 ft | 447 kts | 38° |
| 2026-05-06 05:20 | -4.86763 | 107.75451 | 23481 ft | 449 kts | 38° |
| 2026-05-06 05:20 | -4.84266 | 107.77358 | 23704 ft | 452 kts | 38° |
| 2026-05-06 05:20 | -4.81767 | 107.79267 | 23943 ft | 453 kts | 38° |
| 2026-05-06 05:21 | -4.79248 | 107.81190 | 24180 ft | 455 kts | 38° |
| 2026-05-06 05:21 | -4.76730 | 107.83112 | 24419 ft | 456 kts | 38° |
| 2026-05-06 05:21 | -4.74193 | 107.85048 | 24656 ft | 458 kts | 38° |
| 2026-05-06 05:21 | -4.71671 | 107.86971 | 24867 ft | 460 kts | 38° |
| 2026-05-06 05:22 | -4.69108 | 107.88926 | 25077 ft | 462 kts | 38° |
| 2026-05-06 05:22 | -4.66550 | 107.90876 | 25299 ft | 463 kts | 38° |
| 2026-05-06 05:22 | -4.63975 | 107.92839 | 25531 ft | 465 kts | 38° |
| 2026-05-06 05:22 | -4.61396 | 107.94807 | 25735 ft | 466 kts | 38° |
| 2026-05-06 05:23 | -4.58783 | 107.96801 | 25923 ft | 469 kts | 38° |
| 2026-05-06 05:23 | -4.56208 | 107.98766 | 26150 ft | 470 kts | 38° |
| 2026-05-06 05:23 | -4.50974 | 108.02757 | 26557 ft | 473 kts | 38° |
| 2026-05-06 05:24 | -4.48361 | 108.04748 | 26747 ft | 474 kts | 38° |
| 2026-05-06 05:24 | -4.45720 | 108.06762 | 26937 ft | 476 kts | 38° |
| 2026-05-06 05:24 | -4.43070 | 108.08781 | 27162 ft | 477 kts | 38° |
| 2026-05-06 05:24 | -4.40427 | 108.10794 | 27466 ft | 475 kts | 38° |
| 2026-05-06 05:25 | -4.37814 | 108.12785 | 27773 ft | 474 kts | 38° |
| 2026-05-06 05:25 | -4.35191 | 108.14784 | 28065 ft | 473 kts | 38° |
| 2026-05-06 05:25 | -4.32566 | 108.16782 | 28347 ft | 472 kts | 38° |
| 2026-05-06 05:25 | -4.29970 | 108.18761 | 28630 ft | 471 kts | 38° |
| 2026-05-06 05:26 | -4.27358 | 108.20753 | 28897 ft | 471 kts | 38° |
| 2026-05-06 05:26 | -4.24751 | 108.22739 | 29145 ft | 471 kts | 38° |
| 2026-05-06 05:26 | -4.22148 | 108.24723 | 29411 ft | 470 kts | 38° |
| 2026-05-06 05:26 | -4.19543 | 108.26707 | 29662 ft | 470 kts | 38° |
| 2026-05-06 05:27 | -4.16911 | 108.28711 | 29900 ft | 470 kts | 38° |
| 2026-05-06 05:27 | -4.14320 | 108.30683 | 30115 ft | 471 kts | 38° |
| 2026-05-06 05:27 | -4.11697 | 108.32681 | 30339 ft | 471 kts | 38° |
| 2026-05-06 05:27 | -4.09084 | 108.34670 | 30559 ft | 471 kts | 38° |
| 2026-05-06 05:28 | -4.06510 | 108.36629 | 30799 ft | 470 kts | 38° |
| 2026-05-06 05:28 | -4.03895 | 108.38620 | 31051 ft | 470 kts | 38° |
| 2026-05-06 05:28 | -4.01261 | 108.40625 | 31264 ft | 470 kts | 38° |
| 2026-05-06 05:28 | -3.98616 | 108.42639 | 31451 ft | 471 kts | 38° |
| 2026-05-06 05:29 | -3.95996 | 108.44632 | 31612 ft | 471 kts | 38° |
| 2026-05-06 05:29 | -3.93372 | 108.46630 | 31770 ft | 473 kts | 38° |
| 2026-05-06 05:29 | -3.90750 | 108.48625 | 31916 ft | 474 kts | 38° |
| 2026-05-06 05:29 | -3.88100 | 108.50643 | 32079 ft | 475 kts | 38° |
| 2026-05-06 05:30 | -3.85473 | 108.52642 | 32231 ft | 477 kts | 38° |
| 2026-05-06 05:30 | -3.82801 | 108.54675 | 32394 ft | 478 kts | 38° |
| 2026-05-06 05:30 | -3.80146 | 108.56695 | 32567 ft | 479 kts | 38° |
| 2026-05-06 05:30 | -3.77494 | 108.58712 | 32755 ft | 479 kts | 38° |
| 2026-05-06 05:31 | -3.72171 | 108.62760 | 32827 ft | 480 kts | 38° |
| 2026-05-06 05:31 | -3.67270 | 108.67215 | 32827 ft | 477 kts | 54° |
| 2026-05-06 05:32 | -3.65536 | 108.70032 | 32823 ft | 476 kts | 65° |
| 2026-05-06 05:32 | -3.64220 | 108.73069 | 32826 ft | 475 kts | 69° |
| 2026-05-06 05:32 | -3.61884 | 108.79221 | 32825 ft | 475 kts | 70° |
| 2026-05-06 05:33 | -3.59593 | 108.85427 | 32823 ft | 474 kts | 70° |
| 2026-05-06 05:33 | -3.57322 | 108.91587 | 32818 ft | 475 kts | 70° |
| 2026-05-06 05:34 | -3.55896 | 108.94590 | 32810 ft | 476 kts | 59° |
| 2026-05-06 05:34 | -3.53907 | 108.97232 | 32817 ft | 478 kts | 49° |
| 2026-05-06 05:34 | -3.48897 | 109.01588 | 32817 ft | 480 kts | 37° |
| 2026-05-06 05:35 | -3.43446 | 109.05504 | 32815 ft | 480 kts | 37° |
| 2026-05-06 05:35 | -3.37999 | 109.09394 | 32811 ft | 479 kts | 37° |
| 2026-05-06 05:36 | -3.32580 | 109.13275 | 32811 ft | 480 kts | 37° |
| 2026-05-06 05:36 | -3.27158 | 109.17163 | 32811 ft | 480 kts | 37° |
| 2026-05-06 05:37 | -3.21728 | 109.21060 | 32809 ft | 480 kts | 37° |
| 2026-05-06 05:37 | -3.16300 | 109.24952 | 32814 ft | 480 kts | 37° |
| 2026-05-06 05:38 | -3.10842 | 109.28867 | 32822 ft | 479 kts | 37° |
| 2026-05-06 05:38 | -3.05434 | 109.32745 | 32829 ft | 480 kts | 37° |
| 2026-05-06 05:39 | -3.00011 | 109.36635 | 32830 ft | 480 kts | 37° |
| 2026-05-06 05:39 | -2.94593 | 109.40520 | 32829 ft | 480 kts | 37° |
| 2026-05-06 05:40 | -2.89162 | 109.44414 | 32828 ft | 479 kts | 37° |
| 2026-05-06 05:40 | -2.83744 | 109.48299 | 32827 ft | 478 kts | 37° |
| 2026-05-06 05:41 | -2.78337 | 109.52174 | 32827 ft | 478 kts | 37° |
| 2026-05-06 05:41 | -2.72922 | 109.56055 | 32825 ft | 477 kts | 37° |
| 2026-05-06 05:42 | -2.67515 | 109.59931 | 32820 ft | 476 kts | 37° |
| 2026-05-06 05:42 | -2.62128 | 109.63792 | 32817 ft | 476 kts | 37° |
| 2026-05-06 05:43 | -2.56736 | 109.67656 | 32816 ft | 476 kts | 36° |
| 2026-05-06 05:43 | -2.51358 | 109.71509 | 32814 ft | 476 kts | 36° |
| 2026-05-06 05:44 | -2.45980 | 109.75361 | 32810 ft | 476 kts | 36° |
| 2026-05-06 05:44 | -2.40579 | 109.79230 | 32800 ft | 475 kts | 37° |
| 2026-05-06 05:45 | -2.35186 | 109.83093 | 32799 ft | 475 kts | 36° |
| 2026-05-06 05:45 | -2.29802 | 109.86950 | 32797 ft | 475 kts | 36° |
| 2026-05-06 05:46 | -2.24438 | 109.90791 | 32795 ft | 475 kts | 36° |
| 2026-05-06 05:46 | -2.19040 | 109.94656 | 32793 ft | 474 kts | 37° |
| 2026-05-06 05:47 | -2.13710 | 109.98473 | 32791 ft | 473 kts | 36° |
| 2026-05-06 05:47 | -2.08330 | 110.02325 | 32790 ft | 473 kts | 37° |
| 2026-05-06 05:48 | -2.02975 | 110.06156 | 32790 ft | 473 kts | 37° |
| 2026-05-06 05:48 | -1.97613 | 110.09995 | 32791 ft | 474 kts | 37° |
| 2026-05-06 05:49 | -1.92252 | 110.13833 | 32788 ft | 474 kts | 37° |
| 2026-05-06 05:49 | -1.86886 | 110.17673 | 32787 ft | 474 kts | 37° |
| 2026-05-06 05:50 | -1.81518 | 110.21516 | 32788 ft | 473 kts | 36° |
| 2026-05-06 05:50 | -1.76160 | 110.25349 | 32788 ft | 473 kts | 37° |
| 2026-05-06 05:51 | -1.70820 | 110.29167 | 32786 ft | 473 kts | 37° |
| 2026-05-06 05:51 | -1.65443 | 110.33015 | 32793 ft | 474 kts | 37° |
| 2026-05-06 05:52 | -1.60073 | 110.36860 | 32800 ft | 474 kts | 37° |
| 2026-05-06 05:52 | -1.54708 | 110.40698 | 32807 ft | 474 kts | 37° |
| 2026-05-06 05:53 | -1.49342 | 110.44535 | 32813 ft | 474 kts | 37° |
| 2026-05-06 05:53 | -1.43985 | 110.48367 | 32815 ft | 474 kts | 37° |
| 2026-05-06 05:54 | -1.38638 | 110.52190 | 32817 ft | 474 kts | 37° |
| 2026-05-06 05:54 | -1.33247 | 110.56047 | 32817 ft | 474 kts | 37° |
| 2026-05-06 05:55 | -1.27905 | 110.59869 | 32813 ft | 475 kts | 37° |
| 2026-05-06 05:55 | -1.22517 | 110.63721 | 32811 ft | 475 kts | 37° |
| 2026-05-06 05:56 | -1.17119 | 110.67580 | 32812 ft | 474 kts | 37° |
| 2026-05-06 05:56 | -1.11753 | 110.71417 | 32812 ft | 474 kts | 36° |
| 2026-05-06 05:57 | -1.06390 | 110.75253 | 32813 ft | 473 kts | 36° |
| 2026-05-06 05:57 | -1.01028 | 110.79086 | 32814 ft | 473 kts | 36° |
| 2026-05-06 05:58 | -0.95693 | 110.82901 | 32818 ft | 474 kts | 36° |
| 2026-05-06 05:58 | -0.90283 | 110.86769 | 32819 ft | 475 kts | 36° |
| 2026-05-06 05:59 | -0.84907 | 110.90610 | 32822 ft | 475 kts | 36° |
| 2026-05-06 05:59 | -0.79539 | 110.94448 | 32823 ft | 473 kts | 36° |
| 2026-05-06 06:00 | -0.74201 | 110.98265 | 32824 ft | 473 kts | 36° |
| 2026-05-06 06:00 | -0.68842 | 111.02097 | 32833 ft | 472 kts | 36° |
| 2026-05-06 06:01 | -0.63501 | 111.05913 | 32848 ft | 473 kts | 36° |
| 2026-05-06 06:01 | -0.58105 | 111.09770 | 32845 ft | 474 kts | 36° |
| 2026-05-06 06:02 | -0.52777 | 111.13579 | 32852 ft | 473 kts | 36° |
| 2026-05-06 06:02 | -0.47423 | 111.17405 | 32854 ft | 472 kts | 36° |
| 2026-05-06 06:03 | -0.42073 | 111.21230 | 32841 ft | 473 kts | 36° |
| 2026-05-06 06:03 | -0.36689 | 111.25078 | 32828 ft | 473 kts | 36° |
| 2026-05-06 06:04 | -0.31366 | 111.28881 | 32823 ft | 472 kts | 36° |
| 2026-05-06 06:04 | -0.26012 | 111.32708 | 32817 ft | 472 kts | 36° |
| 2026-05-06 06:05 | -0.20650 | 111.36540 | 32811 ft | 472 kts | 36° |
| 2026-05-06 06:05 | -0.15311 | 111.40356 | 32805 ft | 472 kts | 36° |
| 2026-05-06 06:06 | -0.09950 | 111.44188 | 32800 ft | 472 kts | 36° |
| 2026-05-06 06:06 | -0.04605 | 111.48007 | 32798 ft | 471 kts | 36° |
| 2026-05-06 06:07 | 0.00713 | 111.51807 | 32789 ft | 471 kts | 36° |
| 2026-05-06 06:07 | 0.06054 | 111.55624 | 32785 ft | 470 kts | 37° |
| 2026-05-06 06:08 | 0.11369 | 111.59424 | 32786 ft | 470 kts | 37° |
| 2026-05-06 06:08 | 0.16714 | 111.63245 | 32785 ft | 470 kts | 37° |
| 2026-05-06 06:09 | 0.22040 | 111.67052 | 32786 ft | 471 kts | 37° |
| 2026-05-06 06:09 | 0.27351 | 111.70851 | 32786 ft | 471 kts | 37° |
| 2026-05-06 06:10 | 0.32696 | 111.74673 | 32789 ft | 471 kts | 37° |
| 2026-05-06 06:10 | 0.38035 | 111.78489 | 32791 ft | 471 kts | 37° |
| 2026-05-06 06:11 | 0.43375 | 111.82306 | 32792 ft | 471 kts | 37° |
| 2026-05-06 06:11 | 0.48698 | 111.86111 | 32792 ft | 471 kts | 37° |
| 2026-05-06 06:12 | 0.54019 | 111.89918 | 32791 ft | 472 kts | 37° |
| 2026-05-06 06:12 | 0.59375 | 111.93745 | 32789 ft | 472 kts | 37° |
| 2026-05-06 06:13 | 0.64746 | 111.97583 | 32786 ft | 472 kts | 37° |
| 2026-05-06 06:13 | 0.70077 | 112.01392 | 32780 ft | 472 kts | 37° |
| 2026-05-06 06:14 | 0.75439 | 112.05226 | 32774 ft | 472 kts | 37° |
| 2026-05-06 06:14 | 0.80769 | 112.09037 | 32775 ft | 472 kts | 37° |
| 2026-05-06 06:15 | 0.86107 | 112.12856 | 32777 ft | 472 kts | 37° |
| 2026-05-06 06:15 | 0.91453 | 112.16677 | 32775 ft | 472 kts | 37° |
| 2026-05-06 06:16 | 0.96823 | 112.20515 | 32779 ft | 473 kts | 37° |
| 2026-05-06 06:16 | 1.02171 | 112.24340 | 32784 ft | 474 kts | 37° |
| 2026-05-06 06:17 | 1.07565 | 112.28197 | 32789 ft | 473 kts | 37° |
| 2026-05-06 06:17 | 1.12913 | 112.32023 | 32798 ft | 474 kts | 37° |
| 2026-05-06 06:18 | 1.18298 | 112.35874 | 32808 ft | 475 kts | 37° |
| 2026-05-06 06:18 | 1.23674 | 112.39721 | 32815 ft | 475 kts | 37° |
| 2026-05-06 06:19 | 1.29058 | 112.43571 | 32819 ft | 475 kts | 37° |
| 2026-05-06 06:19 | 1.34413 | 112.47399 | 32826 ft | 475 kts | 37° |
| 2026-05-06 06:20 | 1.39784 | 112.51242 | 32832 ft | 475 kts | 37° |
| 2026-05-06 06:20 | 1.45160 | 112.55093 | 32838 ft | 475 kts | 37° |
| 2026-05-06 06:21 | 1.50547 | 112.58952 | 32844 ft | 476 kts | 37° |
| 2026-05-06 06:21 | 1.55950 | 112.62822 | 32838 ft | 476 kts | 37° |
| 2026-05-06 06:22 | 1.61178 | 112.66844 | 32828 ft | 476 kts | 39° |
| 2026-05-06 06:22 | 1.66401 | 112.70933 | 32819 ft | 476 kts | 39° |
| 2026-05-06 06:23 | 1.71637 | 112.75039 | 32815 ft | 476 kts | 39° |
| 2026-05-06 06:23 | 1.76831 | 112.79115 | 32814 ft | 476 kts | 39° |
| 2026-05-06 06:24 | 1.82072 | 112.83227 | 32814 ft | 476 kts | 39° |
| 2026-05-06 06:24 | 1.87281 | 112.87313 | 32811 ft | 476 kts | 39° |
| 2026-05-06 06:25 | 1.92509 | 112.91415 | 32809 ft | 477 kts | 39° |
| 2026-05-06 06:26 | 2.00341 | 112.97563 | 32807 ft | 477 kts | 39° |
| 2026-05-06 06:26 | 2.05532 | 113.01636 | 32810 ft | 476 kts | 39° |
| 2026-05-06 06:27 | 2.10767 | 113.05746 | 32807 ft | 476 kts | 39° |
| 2026-05-06 06:27 | 2.15980 | 113.09840 | 32809 ft | 476 kts | 39° |
| 2026-05-06 06:28 | 2.21200 | 113.13939 | 32815 ft | 476 kts | 39° |
| 2026-05-06 06:28 | 2.26414 | 113.18034 | 32822 ft | 476 kts | 39° |
| 2026-05-06 06:29 | 2.31635 | 113.22134 | 32829 ft | 476 kts | 39° |
| 2026-05-06 06:29 | 2.36837 | 113.26219 | 32832 ft | 476 kts | 39° |
| 2026-05-06 06:30 | 2.42039 | 113.30306 | 32834 ft | 476 kts | 39° |
| 2026-05-06 06:30 | 2.47262 | 113.34410 | 32835 ft | 476 kts | 39° |
| 2026-05-06 06:31 | 2.52468 | 113.38501 | 32838 ft | 475 kts | 39° |
| 2026-05-06 06:31 | 2.57656 | 113.42579 | 32843 ft | 475 kts | 39° |
| 2026-05-06 06:32 | 2.62868 | 113.46677 | 32857 ft | 475 kts | 39° |
| 2026-05-06 06:32 | 2.68078 | 113.50775 | 32873 ft | 475 kts | 39° |
| 2026-05-06 06:33 | 2.73259 | 113.54852 | 32872 ft | 475 kts | 39° |
| 2026-05-06 06:33 | 2.78482 | 113.58958 | 32867 ft | 474 kts | 39° |
| 2026-05-06 06:34 | 2.83687 | 113.63049 | 32863 ft | 475 kts | 39° |
| 2026-05-06 06:34 | 2.88852 | 113.67117 | 32861 ft | 474 kts | 39° |
| 2026-05-06 06:35 | 2.94024 | 113.71196 | 32868 ft | 474 kts | 40° |
| 2026-05-06 06:35 | 2.99237 | 113.75307 | 32879 ft | 475 kts | 40° |
| 2026-05-06 06:36 | 3.04394 | 113.79372 | 32882 ft | 474 kts | 40° |
| 2026-05-06 06:36 | 3.09583 | 113.83467 | 32871 ft | 474 kts | 40° |
| 2026-05-06 06:37 | 3.14768 | 113.87558 | 32862 ft | 474 kts | 40° |
| 2026-05-06 06:37 | 3.19961 | 113.91657 | 32853 ft | 475 kts | 40° |
| 2026-05-06 06:38 | 3.25173 | 113.95770 | 32846 ft | 475 kts | 40° |
| 2026-05-06 06:38 | 3.30362 | 113.99867 | 32838 ft | 476 kts | 40° |
| 2026-05-06 06:39 | 3.35553 | 114.03966 | 32847 ft | 476 kts | 40° |
| 2026-05-06 06:39 | 3.40748 | 114.08069 | 32852 ft | 475 kts | 40° |
| 2026-05-06 06:40 | 3.45959 | 114.12183 | 32853 ft | 476 kts | 40° |
| 2026-05-06 06:40 | 3.51143 | 114.16277 | 32842 ft | 476 kts | 40° |
| 2026-05-06 06:41 | 3.56332 | 114.20377 | 32838 ft | 476 kts | 40° |
| 2026-05-06 06:41 | 3.61529 | 114.24483 | 32843 ft | 476 kts | 40° |
| 2026-05-06 06:42 | 3.66761 | 114.28618 | 32841 ft | 476 kts | 40° |
| 2026-05-06 06:42 | 3.71954 | 114.32722 | 32848 ft | 476 kts | 40° |
| 2026-05-06 06:43 | 3.77163 | 114.36843 | 32855 ft | 477 kts | 40° |
| 2026-05-06 06:43 | 3.82380 | 114.40971 | 32853 ft | 476 kts | 40° |
| 2026-05-06 06:44 | 3.87556 | 114.45068 | 32854 ft | 476 kts | 40° |
| 2026-05-06 06:44 | 3.92750 | 114.49178 | 32849 ft | 476 kts | 40° |
| 2026-05-06 06:45 | 3.98021 | 114.53189 | 32837 ft | 476 kts | 38° |
| 2026-05-06 06:45 | 4.03375 | 114.57186 | 32832 ft | 477 kts | 38° |
| 2026-05-06 06:46 | 4.08683 | 114.61167 | 32835 ft | 477 kts | 38° |
| 2026-05-06 06:46 | 4.13983 | 114.65153 | 32836 ft | 477 kts | 39° |
| 2026-05-06 06:47 | 4.19283 | 114.69144 | 32841 ft | 476 kts | 39° |
| 2026-05-06 06:47 | 4.24577 | 114.73133 | 32842 ft | 476 kts | 38° |
| 2026-05-06 06:48 | 4.29869 | 114.77120 | 32839 ft | 476 kts | 38° |
| 2026-05-06 06:48 | 4.35182 | 114.81126 | 32839 ft | 476 kts | 39° |
| 2026-05-06 06:49 | 4.40489 | 114.85129 | 32840 ft | 476 kts | 39° |
| 2026-05-06 06:49 | 4.45728 | 114.89127 | 32842 ft | 476 kts | 40° |
| 2026-05-06 06:50 | 4.50885 | 114.93306 | 32852 ft | 476 kts | 41° |
| 2026-05-06 06:50 | 4.56032 | 114.97498 | 32852 ft | 476 kts | 40° |
| 2026-05-06 06:51 | 4.61186 | 115.01678 | 32842 ft | 476 kts | 40° |
| 2026-05-06 06:51 | 4.66356 | 115.05866 | 32833 ft | 476 kts | 40° |
| 2026-05-06 06:52 | 4.71483 | 115.10019 | 32827 ft | 476 kts | 40° |
| 2026-05-06 06:52 | 4.76630 | 115.14191 | 32825 ft | 475 kts | 40° |
| 2026-05-06 06:53 | 4.81780 | 115.18368 | 32827 ft | 476 kts | 40° |
| 2026-05-06 06:53 | 4.86932 | 115.22524 | 32827 ft | 476 kts | 40° |
| 2026-05-06 06:54 | 4.92149 | 115.26635 | 32822 ft | 476 kts | 40° |
| 2026-05-06 06:54 | 4.97377 | 115.30756 | 32819 ft | 476 kts | 40° |
| 2026-05-06 06:55 | 5.02588 | 115.34872 | 32809 ft | 475 kts | 40° |
| 2026-05-06 06:55 | 5.07765 | 115.38968 | 32802 ft | 474 kts | 40° |
| 2026-05-06 06:56 | 5.12945 | 115.43067 | 32800 ft | 474 kts | 40° |
| 2026-05-06 06:56 | 5.18150 | 115.47189 | 32800 ft | 475 kts | 40° |
| 2026-05-06 06:57 | 5.23311 | 115.51277 | 32800 ft | 474 kts | 40° |
| 2026-05-06 06:57 | 5.28513 | 115.55399 | 32806 ft | 474 kts | 40° |
| 2026-05-06 06:58 | 5.33675 | 115.59494 | 32811 ft | 473 kts | 40° |
| 2026-05-06 06:58 | 5.38852 | 115.63584 | 32814 ft | 473 kts | 39° |
| 2026-05-06 06:59 | 5.44069 | 115.67635 | 32812 ft | 473 kts | 39° |
| 2026-05-06 06:59 | 5.49252 | 115.71661 | 32804 ft | 473 kts | 39° |
| 2026-05-06 07:00 | 5.54479 | 115.75728 | 32798 ft | 473 kts | 39° |
| 2026-05-06 07:00 | 5.59678 | 115.79778 | 32812 ft | 473 kts | 39° |
| 2026-05-06 07:01 | 5.64878 | 115.83832 | 32827 ft | 473 kts | 39° |
| 2026-05-06 07:01 | 5.70069 | 115.87878 | 32832 ft | 472 kts | 39° |
| 2026-05-06 07:02 | 5.75282 | 115.91946 | 32826 ft | 473 kts | 39° |
| 2026-05-06 07:02 | 5.80491 | 115.96011 | 32821 ft | 474 kts | 39° |
| 2026-05-06 07:03 | 5.85672 | 116.00056 | 32819 ft | 474 kts | 39° |
| 2026-05-06 07:03 | 5.90938 | 116.04081 | 32823 ft | 474 kts | 37° |
| 2026-05-06 07:04 | 5.96362 | 116.07880 | 32828 ft | 474 kts | 36° |
| 2026-05-06 07:04 | 6.01781 | 116.11661 | 32829 ft | 473 kts | 36° |
| 2026-05-06 07:05 | 6.07174 | 116.15432 | 32829 ft | 473 kts | 36° |
| 2026-05-06 07:05 | 6.12594 | 116.19226 | 32827 ft | 473 kts | 36° |
| 2026-05-06 07:06 | 6.17973 | 116.22991 | 32826 ft | 472 kts | 36° |
| 2026-05-06 07:06 | 6.23365 | 116.26768 | 32818 ft | 471 kts | 36° |
| 2026-05-06 07:07 | 6.28764 | 116.30552 | 32821 ft | 471 kts | 36° |
| 2026-05-06 07:07 | 6.34162 | 116.34338 | 32834 ft | 472 kts | 36° |
| 2026-05-06 07:08 | 6.39544 | 116.38115 | 32831 ft | 470 kts | 36° |
| 2026-05-06 07:08 | 6.44911 | 116.41880 | 32823 ft | 470 kts | 36° |
| 2026-05-06 07:09 | 6.50274 | 116.45637 | 32809 ft | 470 kts | 36° |
| 2026-05-06 07:09 | 6.55631 | 116.49394 | 32795 ft | 469 kts | 36° |
| 2026-05-06 07:10 | 6.60996 | 116.53158 | 32795 ft | 468 kts | 36° |
| 2026-05-06 07:10 | 6.66337 | 116.56905 | 32791 ft | 469 kts | 36° |
| 2026-05-06 07:11 | 6.71693 | 116.60668 | 32792 ft | 468 kts | 36° |
| 2026-05-06 07:11 | 6.77032 | 116.64423 | 32795 ft | 468 kts | 36° |
| 2026-05-06 07:12 | 6.82367 | 116.68175 | 32799 ft | 468 kts | 36° |
| 2026-05-06 07:12 | 6.87711 | 116.71937 | 32803 ft | 467 kts | 36° |
| 2026-05-06 07:13 | 6.93025 | 116.75678 | 32803 ft | 466 kts | 36° |
| 2026-05-06 07:13 | 6.98355 | 116.79431 | 32805 ft | 466 kts | 36° |
| 2026-05-06 07:14 | 7.03660 | 116.83168 | 32801 ft | 466 kts | 36° |
| 2026-05-06 07:14 | 7.08995 | 116.86929 | 32800 ft | 467 kts | 36° |
| 2026-05-06 07:15 | 7.14310 | 116.90674 | 32802 ft | 466 kts | 36° |
| 2026-05-06 07:15 | 7.19628 | 116.94423 | 32807 ft | 466 kts | 36° |
| 2026-05-06 07:16 | 7.24955 | 116.98181 | 32808 ft | 466 kts | 36° |
| 2026-05-06 07:16 | 7.30247 | 117.01916 | 32807 ft | 466 kts | 36° |
| 2026-05-06 07:17 | 7.35588 | 117.05686 | 32809 ft | 467 kts | 36° |
| 2026-05-06 07:17 | 7.40915 | 117.09447 | 32809 ft | 467 kts | 36° |
| 2026-05-06 07:18 | 7.46232 | 117.13203 | 32808 ft | 468 kts | 36° |
| 2026-05-06 07:18 | 7.51550 | 117.16961 | 32808 ft | 468 kts | 36° |
| 2026-05-06 07:19 | 7.56917 | 117.20757 | 32809 ft | 468 kts | 36° |
| 2026-05-06 07:19 | 7.62235 | 117.24519 | 32812 ft | 468 kts | 36° |
| 2026-05-06 07:20 | 7.67570 | 117.28294 | 32811 ft | 468 kts | 36° |
| 2026-05-06 07:20 | 7.72899 | 117.32076 | 32813 ft | 468 kts | 36° |
| 2026-05-06 07:21 | 7.78247 | 117.35894 | 32813 ft | 469 kts | 36° |
| 2026-05-06 07:21 | 7.83577 | 117.39706 | 32815 ft | 469 kts | 36° |
| 2026-05-06 07:22 | 7.88896 | 117.43511 | 32820 ft | 469 kts | 36° |
| 2026-05-06 07:22 | 7.94231 | 117.47327 | 32827 ft | 469 kts | 36° |
| 2026-05-06 07:23 | 7.99522 | 117.51116 | 32829 ft | 468 kts | 36° |
| 2026-05-06 07:23 | 8.04860 | 117.54939 | 32828 ft | 468 kts | 36° |
| 2026-05-06 07:24 | 8.10150 | 117.58730 | 32827 ft | 469 kts | 36° |
| 2026-05-06 07:24 | 8.15485 | 117.62557 | 32823 ft | 470 kts | 36° |
| 2026-05-06 07:25 | 8.20847 | 117.66402 | 32819 ft | 470 kts | 36° |
| 2026-05-06 07:25 | 8.26152 | 117.70206 | 32814 ft | 469 kts | 36° |
| 2026-05-06 07:26 | 8.31474 | 117.74024 | 32814 ft | 469 kts | 36° |
| 2026-05-06 07:26 | 8.36820 | 117.77860 | 32815 ft | 470 kts | 36° |
| 2026-05-06 07:27 | 8.42150 | 117.81686 | 32815 ft | 470 kts | 36° |
| 2026-05-06 07:27 | 8.47502 | 117.85529 | 32816 ft | 472 kts | 36° |
| 2026-05-06 07:28 | 8.52858 | 117.89375 | 32818 ft | 472 kts | 36° |
| 2026-05-06 07:28 | 8.60864 | 117.95129 | 32821 ft | 471 kts | 36° |
| 2026-05-06 07:29 | 8.66195 | 117.98962 | 32823 ft | 471 kts | 36° |
| 2026-05-06 07:29 | 8.71561 | 118.02821 | 32822 ft | 471 kts | 36° |
| 2026-05-06 07:30 | 8.76896 | 118.06660 | 32822 ft | 472 kts | 36° |
| 2026-05-06 07:30 | 8.82248 | 118.10512 | 32826 ft | 473 kts | 36° |
| 2026-05-06 07:31 | 8.87639 | 118.14394 | 32830 ft | 472 kts | 36° |
| 2026-05-06 07:31 | 8.92976 | 118.18240 | 32829 ft | 472 kts | 36° |
| 2026-05-06 07:32 | 8.98327 | 118.22098 | 32830 ft | 472 kts | 36° |
| 2026-05-06 07:32 | 9.03694 | 118.25970 | 32837 ft | 473 kts | 36° |
| 2026-05-06 07:33 | 9.09066 | 118.29846 | 32857 ft | 474 kts | 36° |
| 2026-05-06 07:33 | 9.14433 | 118.33729 | 32874 ft | 474 kts | 36° |
| 2026-05-06 07:34 | 9.19785 | 118.37608 | 32879 ft | 474 kts | 36° |
| 2026-05-06 07:34 | 9.25174 | 118.41517 | 32878 ft | 474 kts | 36° |
| 2026-05-06 07:35 | 9.30533 | 118.45407 | 32864 ft | 474 kts | 36° |
| 2026-05-06 07:35 | 9.35881 | 118.49290 | 32851 ft | 475 kts | 36° |
| 2026-05-06 07:36 | 9.41287 | 118.53215 | 32846 ft | 476 kts | 36° |
| 2026-05-06 07:36 | 9.46643 | 118.57107 | 32848 ft | 476 kts | 36° |
| 2026-05-06 07:37 | 9.52031 | 118.61026 | 32849 ft | 475 kts | 36° |
| 2026-05-06 07:37 | 9.57390 | 118.64926 | 32844 ft | 475 kts | 36° |
| 2026-05-06 07:38 | 9.62748 | 118.68830 | 32840 ft | 475 kts | 36° |
| 2026-05-06 07:38 | 9.68150 | 118.72764 | 32838 ft | 475 kts | 36° |
| 2026-05-06 07:39 | 9.73651 | 118.76447 | 32838 ft | 476 kts | 31° |
| 2026-05-06 07:39 | 9.79540 | 118.79559 | 32839 ft | 476 kts | 25° |
| 2026-05-06 07:40 | 9.85598 | 118.82343 | 32838 ft | 475 kts | 24° |
| 2026-05-06 07:40 | 9.91635 | 118.85101 | 32836 ft | 475 kts | 24° |
| 2026-05-06 07:41 | 9.97631 | 118.87847 | 32836 ft | 475 kts | 24° |
| 2026-05-06 07:41 | 10.03708 | 118.90635 | 32837 ft | 475 kts | 24° |
| 2026-05-06 07:42 | 10.09727 | 118.93398 | 32844 ft | 477 kts | 24° |
| 2026-05-06 07:42 | 10.15781 | 118.96178 | 32853 ft | 477 kts | 24° |
| 2026-05-06 07:43 | 10.21823 | 118.98957 | 32849 ft | 476 kts | 24° |
| 2026-05-06 07:43 | 10.27883 | 119.01746 | 32854 ft | 475 kts | 24° |
| 2026-05-06 07:44 | 10.33914 | 119.04523 | 32846 ft | 476 kts | 24° |
| 2026-05-06 07:44 | 10.39954 | 119.07294 | 32838 ft | 477 kts | 24° |
| 2026-05-06 07:45 | 10.46012 | 119.10074 | 32829 ft | 477 kts | 24° |
| 2026-05-06 07:45 | 10.52090 | 119.12869 | 32823 ft | 478 kts | 24° |
| 2026-05-06 07:46 | 10.58149 | 119.15659 | 32825 ft | 478 kts | 24° |
| 2026-05-06 07:46 | 10.64204 | 119.18448 | 32829 ft | 478 kts | 24° |
| 2026-05-06 07:47 | 10.70292 | 119.21254 | 32829 ft | 478 kts | 24° |
| 2026-05-06 07:47 | 10.76353 | 119.24049 | 32830 ft | 478 kts | 24° |
| 2026-05-06 07:48 | 10.82429 | 119.26854 | 32829 ft | 479 kts | 24° |
| 2026-05-06 07:48 | 10.88512 | 119.29662 | 33136 ft | 482 kts | 24° |
| 2026-05-06 07:49 | 10.91577 | 119.31077 | 33495 ft | 480 kts | 24° |
| 2026-05-06 07:49 | 10.94607 | 119.32477 | 33852 ft | 478 kts | 24° |
| 2026-05-06 07:49 | 10.97632 | 119.33875 | 34190 ft | 477 kts | 24° |
| 2026-05-06 07:49 | 11.00660 | 119.35273 | 34513 ft | 476 kts | 24° |
| 2026-05-06 07:50 | 11.03675 | 119.36668 | 34795 ft | 476 kts | 24° |
| 2026-05-06 07:50 | 11.06687 | 119.38058 | 34827 ft | 475 kts | 24° |
| 2026-05-06 07:50 | 11.12746 | 119.40861 | 34834 ft | 475 kts | 24° |
| 2026-05-06 07:51 | 11.18751 | 119.43640 | 34839 ft | 476 kts | 24° |
| 2026-05-06 07:51 | 11.24795 | 119.46437 | 34842 ft | 476 kts | 24° |
| 2026-05-06 07:52 | 11.30822 | 119.49229 | 34840 ft | 476 kts | 24° |
| 2026-05-06 07:52 | 11.36899 | 119.52045 | 34837 ft | 476 kts | 24° |
| 2026-05-06 07:53 | 11.42931 | 119.54842 | 34831 ft | 476 kts | 24° |
| 2026-05-06 07:53 | 11.48976 | 119.57645 | 34829 ft | 476 kts | 24° |
| 2026-05-06 07:54 | 11.55016 | 119.60450 | 34827 ft | 476 kts | 24° |
| 2026-05-06 07:54 | 11.61026 | 119.63242 | 34828 ft | 476 kts | 24° |
| 2026-05-06 07:55 | 11.67097 | 119.66066 | 34832 ft | 477 kts | 24° |
| 2026-05-06 07:55 | 11.73127 | 119.68881 | 34835 ft | 477 kts | 24° |
| 2026-05-06 07:56 | 11.79153 | 119.71732 | 34836 ft | 477 kts | 25° |
| 2026-05-06 07:56 | 11.85194 | 119.74600 | 34842 ft | 478 kts | 24° |
| 2026-05-06 07:57 | 11.91246 | 119.77473 | 34845 ft | 478 kts | 24° |
| 2026-05-06 07:57 | 11.97278 | 119.80338 | 34848 ft | 478 kts | 24° |
| 2026-05-06 07:58 | 12.03309 | 119.83202 | 34842 ft | 477 kts | 24° |
| 2026-05-06 07:58 | 12.09321 | 119.86060 | 34836 ft | 477 kts | 25° |
| 2026-05-06 07:59 | 12.15340 | 119.88924 | 34839 ft | 478 kts | 25° |
| 2026-05-06 07:59 | 12.21390 | 119.91803 | 34840 ft | 478 kts | 24° |
| 2026-05-06 08:00 | 12.27431 | 119.94680 | 34840 ft | 478 kts | 24° |
| 2026-05-06 08:00 | 12.33452 | 119.97547 | 34839 ft | 478 kts | 24° |
| 2026-05-06 08:01 | 12.39518 | 120.00437 | 34837 ft | 478 kts | 24° |
| 2026-05-06 08:01 | 12.45548 | 120.03313 | 34834 ft | 478 kts | 24° |
| 2026-05-06 08:02 | 12.51572 | 120.06187 | 34833 ft | 477 kts | 24° |
| 2026-05-06 08:02 | 12.57601 | 120.09065 | 34835 ft | 478 kts | 24° |
| 2026-05-06 08:03 | 12.63637 | 120.11948 | 34836 ft | 478 kts | 24° |
| 2026-05-06 08:03 | 12.69658 | 120.14824 | 34837 ft | 479 kts | 24° |
| 2026-05-06 08:04 | 12.75718 | 120.17722 | 34839 ft | 480 kts | 24° |
| 2026-05-06 08:04 | 12.81772 | 120.20618 | 34839 ft | 480 kts | 24° |
| 2026-05-06 08:05 | 12.87846 | 120.23525 | 34844 ft | 480 kts | 24° |
| 2026-05-06 08:05 | 12.93879 | 120.26414 | 34841 ft | 480 kts | 24° |
| 2026-05-06 08:06 | 12.99938 | 120.29318 | 34842 ft | 480 kts | 24° |
| 2026-05-06 08:06 | 13.06004 | 120.32227 | 34844 ft | 480 kts | 24° |
| 2026-05-06 08:07 | 13.12055 | 120.35131 | 34842 ft | 480 kts | 24° |
| 2026-05-06 08:07 | 13.18153 | 120.38059 | 34842 ft | 480 kts | 24° |
| 2026-05-06 08:08 | 13.24174 | 120.40955 | 34843 ft | 481 kts | 24° |
| 2026-05-06 08:08 | 13.30281 | 120.43893 | 34848 ft | 481 kts | 24° |
| 2026-05-06 08:09 | 13.36350 | 120.46806 | 34862 ft | 481 kts | 24° |
| 2026-05-06 08:09 | 13.42401 | 120.49715 | 34880 ft | 481 kts | 24° |
| 2026-05-06 08:10 | 13.48472 | 120.52640 | 34896 ft | 481 kts | 24° |
| 2026-05-06 08:10 | 13.54406 | 120.55831 | 34901 ft | 483 kts | 31° |
| 2026-05-06 08:11 | 13.59769 | 120.60004 | 34886 ft | 484 kts | 41° |
| 2026-05-06 08:11 | 13.64354 | 120.65093 | 34872 ft | 486 kts | 52° |
| 2026-05-06 08:12 | 13.68154 | 120.70795 | 34856 ft | 486 kts | 56° |
| 2026-05-06 08:12 | 13.71833 | 120.76625 | 34849 ft | 486 kts | 57° |
| 2026-05-06 08:13 | 13.75531 | 120.82464 | 34845 ft | 487 kts | 56° |
| 2026-05-06 08:13 | 13.79235 | 120.88292 | 34845 ft | 487 kts | 56° |
| 2026-05-06 08:14 | 13.82930 | 120.94101 | 34843 ft | 486 kts | 56° |
| 2026-05-06 08:14 | 13.86622 | 120.99908 | 34848 ft | 486 kts | 56° |
| 2026-05-06 08:15 | 13.90335 | 121.05751 | 34846 ft | 486 kts | 56° |
| 2026-05-06 08:15 | 13.94018 | 121.11550 | 34865 ft | 487 kts | 56° |
| 2026-05-06 08:16 | 13.97728 | 121.17396 | 34895 ft | 487 kts | 56° |
| 2026-05-06 08:16 | 14.01438 | 121.23244 | 34921 ft | 488 kts | 56° |
| 2026-05-06 08:17 | 14.05129 | 121.29067 | 34925 ft | 488 kts | 56° |
| 2026-05-06 08:17 | 14.08823 | 121.34901 | 34914 ft | 488 kts | 56° |
| 2026-05-06 08:18 | 14.12531 | 121.40758 | 34901 ft | 487 kts | 57° |
| 2026-05-06 08:18 | 14.16235 | 121.46617 | 34892 ft | 487 kts | 57° |
| 2026-05-06 08:19 | 14.19913 | 121.52438 | 34887 ft | 487 kts | 57° |
| 2026-05-06 08:19 | 14.23612 | 121.58295 | 34879 ft | 487 kts | 57° |
| 2026-05-06 08:20 | 14.27304 | 121.64144 | 34874 ft | 488 kts | 57° |
| 2026-05-06 08:20 | 14.31003 | 121.70012 | 34871 ft | 487 kts | 57° |
| 2026-05-06 08:21 | 14.34686 | 121.75859 | 34867 ft | 487 kts | 57° |
| 2026-05-06 08:21 | 14.38382 | 121.81730 | 34865 ft | 487 kts | 57° |
| 2026-05-06 08:22 | 14.42068 | 121.87588 | 34871 ft | 488 kts | 57° |
| 2026-05-06 08:22 | 14.45735 | 121.93419 | 34877 ft | 488 kts | 57° |
| 2026-05-06 08:23 | 14.49437 | 121.99312 | 34878 ft | 487 kts | 57° |
| 2026-05-06 08:23 | 14.53116 | 122.05174 | 34883 ft | 487 kts | 57° |
| 2026-05-06 08:24 | 14.56782 | 122.11024 | 34884 ft | 487 kts | 57° |
| 2026-05-06 08:24 | 14.60443 | 122.16870 | 34883 ft | 487 kts | 57° |
| 2026-05-06 08:25 | 14.64129 | 122.22760 | 34877 ft | 487 kts | 57° |
| 2026-05-06 08:25 | 14.68030 | 122.28465 | 34873 ft | 487 kts | 51° |
| 2026-05-06 08:26 | 14.72506 | 122.33688 | 34873 ft | 487 kts | 45° |
| 2026-05-06 08:26 | 14.77524 | 122.38368 | 34876 ft | 486 kts | 38° |
| 2026-05-06 08:27 | 14.82936 | 122.42615 | 34882 ft | 486 kts | 36° |
| 2026-05-06 08:27 | 14.88347 | 122.46783 | 34880 ft | 486 kts | 36° |
| 2026-05-06 08:28 | 14.93778 | 122.50983 | 34877 ft | 486 kts | 36° |
| 2026-05-06 08:28 | 14.99185 | 122.55176 | 34875 ft | 486 kts | 36° |
| 2026-05-06 08:29 | 15.04602 | 122.59381 | 34873 ft | 486 kts | 36° |
| 2026-05-06 08:29 | 15.09998 | 122.63575 | 34875 ft | 486 kts | 36° |
| 2026-05-06 08:30 | 15.15409 | 122.67782 | 34874 ft | 486 kts | 36° |
| 2026-05-06 08:30 | 15.20814 | 122.71988 | 34879 ft | 486 kts | 36° |
| 2026-05-06 08:31 | 15.26207 | 122.76186 | 34877 ft | 486 kts | 36° |
| 2026-05-06 08:31 | 15.31641 | 122.80422 | 34874 ft | 486 kts | 36° |
| 2026-05-06 08:32 | 15.37026 | 122.84621 | 34877 ft | 487 kts | 36° |
| 2026-05-06 08:32 | 15.42465 | 122.88866 | 34879 ft | 487 kts | 36° |
| 2026-05-06 08:33 | 15.47845 | 122.93068 | 34878 ft | 486 kts | 36° |
| 2026-05-06 08:33 | 15.53250 | 122.97294 | 34881 ft | 486 kts | 36° |
| 2026-05-06 08:34 | 15.61336 | 123.03624 | 34882 ft | 486 kts | 36° |
| 2026-05-06 08:35 | 15.66735 | 123.07843 | 34886 ft | 486 kts | 36° |
| 2026-05-06 08:35 | 15.72151 | 123.12072 | 34889 ft | 486 kts | 36° |
| 2026-05-06 08:36 | 15.77527 | 123.16280 | 34889 ft | 486 kts | 36° |
| 2026-05-06 08:36 | 15.82959 | 123.20540 | 34890 ft | 486 kts | 36° |
| 2026-05-06 08:37 | 15.88338 | 123.24759 | 34890 ft | 486 kts | 36° |
| 2026-05-06 08:37 | 15.93711 | 123.28978 | 34891 ft | 485 kts | 36° |
| 2026-05-06 08:38 | 15.99099 | 123.33212 | 34890 ft | 486 kts | 36° |
| 2026-05-06 08:38 | 16.04512 | 123.37469 | 34891 ft | 486 kts | 36° |
| 2026-05-06 08:39 | 16.09888 | 123.41699 | 34891 ft | 486 kts | 36° |
| 2026-05-06 08:39 | 16.15299 | 123.45960 | 34891 ft | 487 kts | 36° |
| 2026-05-06 08:40 | 16.20695 | 123.50214 | 34893 ft | 487 kts | 36° |
| 2026-05-06 08:40 | 16.26112 | 123.54487 | 34894 ft | 488 kts | 36° |
| 2026-05-06 08:41 | 16.31521 | 123.58753 | 34894 ft | 487 kts | 36° |
| 2026-05-06 08:41 | 16.36912 | 123.63010 | 34897 ft | 488 kts | 36° |
| 2026-05-06 08:42 | 16.42322 | 123.67284 | 34895 ft | 488 kts | 36° |
| 2026-05-06 08:42 | 16.47747 | 123.71575 | 34897 ft | 488 kts | 36° |
| 2026-05-06 08:43 | 16.53137 | 123.75840 | 34896 ft | 489 kts | 36° |
| 2026-05-06 08:43 | 16.58581 | 123.80151 | 34893 ft | 489 kts | 36° |
| 2026-05-06 08:44 | 16.64000 | 123.84448 | 34892 ft | 490 kts | 36° |
| 2026-05-06 08:44 | 16.69396 | 123.88728 | 34891 ft | 490 kts | 36° |
| 2026-05-06 08:45 | 16.74830 | 123.93041 | 34892 ft | 490 kts | 36° |
| 2026-05-06 08:45 | 16.80249 | 123.97343 | 34892 ft | 489 kts | 36° |
| 2026-05-06 08:46 | 16.85692 | 124.01671 | 34892 ft | 490 kts | 36° |
| 2026-05-06 08:46 | 16.91119 | 124.05988 | 34893 ft | 490 kts | 36° |
| 2026-05-06 08:47 | 16.96524 | 124.10294 | 34893 ft | 491 kts | 36° |
| 2026-05-06 08:47 | 17.01984 | 124.14645 | 34892 ft | 492 kts | 36° |
| 2026-05-06 08:48 | 17.07422 | 124.18982 | 34893 ft | 491 kts | 36° |
| 2026-05-06 08:48 | 17.12848 | 124.23313 | 34894 ft | 491 kts | 36° |
| 2026-05-06 08:49 | 17.18276 | 124.27647 | 34893 ft | 491 kts | 36° |
| 2026-05-06 08:49 | 17.23684 | 124.31973 | 34893 ft | 491 kts | 36° |
| 2026-05-06 08:50 | 17.29141 | 124.36342 | 34894 ft | 491 kts | 36° |
| 2026-05-06 08:50 | 17.34555 | 124.40682 | 34894 ft | 491 kts | 36° |
| 2026-05-06 08:51 | 17.39974 | 124.45017 | 34898 ft | 491 kts | 36° |
| 2026-05-06 08:51 | 17.45410 | 124.49361 | 34903 ft | 491 kts | 35° |
| 2026-05-06 08:52 | 17.50852 | 124.53719 | 34911 ft | 492 kts | 35° |
| 2026-05-06 08:52 | 17.56282 | 124.58078 | 34918 ft | 492 kts | 35° |
| 2026-05-06 08:53 | 17.61695 | 124.62423 | 34920 ft | 492 kts | 35° |
| 2026-05-06 08:53 | 17.67140 | 124.66797 | 34919 ft | 491 kts | 35° |
| 2026-05-06 08:54 | 17.72560 | 124.71157 | 34923 ft | 492 kts | 36° |
| 2026-05-06 08:54 | 17.77989 | 124.75529 | 34924 ft | 492 kts | 36° |
| 2026-05-06 08:55 | 17.83414 | 124.79902 | 34920 ft | 492 kts | 36° |
| 2026-05-06 08:55 | 17.88832 | 124.84274 | 34913 ft | 493 kts | 35° |
| 2026-05-06 08:56 | 17.94292 | 124.88681 | 34913 ft | 492 kts | 35° |
| 2026-05-06 08:56 | 17.99717 | 124.93066 | 34913 ft | 492 kts | 35° |
| 2026-05-06 08:57 | 18.05151 | 124.97459 | 34914 ft | 493 kts | 35° |
| 2026-05-06 08:57 | 18.10574 | 125.01848 | 34917 ft | 494 kts | 35° |
| 2026-05-06 08:58 | 18.16017 | 125.06257 | 34916 ft | 494 kts | 35° |
| 2026-05-06 08:58 | 18.21467 | 125.10674 | 34919 ft | 494 kts | 35° |
| 2026-05-06 08:59 | 18.26889 | 125.15072 | 34917 ft | 494 kts | 36° |
| 2026-05-06 08:59 | 18.32336 | 125.19495 | 34920 ft | 494 kts | 35° |
| 2026-05-06 09:00 | 18.37778 | 125.23919 | 34920 ft | 494 kts | 35° |
| 2026-05-06 09:00 | 18.43244 | 125.28364 | 34917 ft | 495 kts | 35° |
| 2026-05-06 09:01 | 18.48658 | 125.32768 | 34918 ft | 495 kts | 35° |
| 2026-05-06 09:01 | 18.54126 | 125.37221 | 34917 ft | 496 kts | 35° |
| 2026-05-06 09:02 | 18.59572 | 125.41661 | 34919 ft | 496 kts | 35° |
| 2026-05-06 09:02 | 18.65019 | 125.46105 | 34920 ft | 495 kts | 35° |
| 2026-05-06 09:03 | 18.70494 | 125.50576 | 34927 ft | 496 kts | 35° |
| 2026-05-06 09:03 | 18.75954 | 125.55040 | 34933 ft | 496 kts | 35° |
| 2026-05-06 09:04 | 18.81413 | 125.59506 | 34935 ft | 497 kts | 35° |
| 2026-05-06 09:04 | 18.86865 | 125.63970 | 34934 ft | 497 kts | 35° |
| 2026-05-06 09:05 | 18.92338 | 125.68454 | 34936 ft | 497 kts | 35° |
| 2026-05-06 09:05 | 18.97803 | 125.72936 | 34935 ft | 497 kts | 35° |
| 2026-05-06 09:06 | 19.03281 | 125.77432 | 34934 ft | 498 kts | 35° |
| 2026-05-06 09:06 | 19.08717 | 125.81898 | 34936 ft | 498 kts | 35° |
| 2026-05-06 09:07 | 19.14204 | 125.86408 | 34935 ft | 498 kts | 35° |
| 2026-05-06 09:07 | 19.19646 | 125.90884 | 34937 ft | 498 kts | 35° |
| 2026-05-06 09:08 | 19.25110 | 125.95387 | 34936 ft | 497 kts | 35° |
| 2026-05-06 09:08 | 19.30587 | 125.99904 | 34932 ft | 497 kts | 35° |
| 2026-05-06 09:09 | 19.36017 | 126.04385 | 34935 ft | 498 kts | 35° |
| 2026-05-06 09:09 | 19.41479 | 126.08890 | 34934 ft | 498 kts | 35° |
| 2026-05-06 09:10 | 19.46972 | 126.13426 | 34934 ft | 498 kts | 35° |
| 2026-05-06 09:10 | 19.52437 | 126.17946 | 34937 ft | 498 kts | 35° |
| 2026-05-06 09:11 | 19.57865 | 126.22440 | 34935 ft | 499 kts | 35° |
| 2026-05-06 09:11 | 19.63335 | 126.26971 | 34937 ft | 499 kts | 35° |
| 2026-05-06 09:12 | 19.68837 | 126.31535 | 34939 ft | 499 kts | 35° |
| 2026-05-06 09:12 | 19.74299 | 126.36070 | 34939 ft | 499 kts | 35° |
| 2026-05-06 09:13 | 19.79758 | 126.40606 | 34940 ft | 500 kts | 35° |
| 2026-05-06 09:13 | 19.85234 | 126.45160 | 34938 ft | 500 kts | 35° |
| 2026-05-06 09:14 | 19.90724 | 126.49728 | 34934 ft | 501 kts | 34° |
| 2026-05-06 09:14 | 19.96213 | 126.54302 | 34927 ft | 501 kts | 34° |
| 2026-05-06 09:15 | 20.01709 | 126.58885 | 34925 ft | 501 kts | 34° |
| 2026-05-06 09:15 | 20.07174 | 126.63446 | 34927 ft | 501 kts | 34° |
| 2026-05-06 09:16 | 20.12653 | 126.68021 | 34927 ft | 501 kts | 35° |
| 2026-05-06 09:16 | 20.18149 | 126.72616 | 34928 ft | 501 kts | 35° |
| 2026-05-06 09:17 | 20.23635 | 126.77210 | 34929 ft | 503 kts | 35° |
| 2026-05-06 09:17 | 20.29153 | 126.81834 | 34929 ft | 503 kts | 35° |
| 2026-05-06 09:18 | 20.34631 | 126.86426 | 34929 ft | 504 kts | 35° |
| 2026-05-06 09:18 | 20.40142 | 126.91053 | 34932 ft | 504 kts | 35° |
| 2026-05-06 09:19 | 20.45649 | 126.95682 | 34934 ft | 504 kts | 35° |
| 2026-05-06 09:19 | 20.51154 | 127.00312 | 34932 ft | 504 kts | 35° |
| 2026-05-06 09:20 | 20.56681 | 127.04964 | 34934 ft | 505 kts | 35° |
| 2026-05-06 09:20 | 20.62201 | 127.09615 | 34934 ft | 505 kts | 35° |
| 2026-05-06 09:21 | 20.67696 | 127.14249 | 34934 ft | 505 kts | 35° |
| 2026-05-06 09:21 | 20.73212 | 127.18906 | 34937 ft | 506 kts | 35° |
| 2026-05-06 09:22 | 20.78750 | 127.23588 | 34937 ft | 506 kts | 35° |
| 2026-05-06 09:22 | 20.84247 | 127.28240 | 34936 ft | 506 kts | 35° |
| 2026-05-06 09:23 | 20.89787 | 127.32935 | 34940 ft | 506 kts | 34° |
| 2026-05-06 09:23 | 20.95302 | 127.37617 | 34941 ft | 506 kts | 35° |
| 2026-05-06 09:24 | 21.00818 | 127.42289 | 34942 ft | 507 kts | 34° |
| 2026-05-06 09:24 | 21.06403 | 127.46849 | 34942 ft | 506 kts | 33° |
| 2026-05-06 09:25 | 21.12020 | 127.51405 | 34941 ft | 507 kts | 33° |
| 2026-05-06 09:25 | 21.17646 | 127.55993 | 34946 ft | 508 kts | 33° |
| 2026-05-06 09:26 | 21.23258 | 127.60583 | 34951 ft | 508 kts | 33° |
| 2026-05-06 09:26 | 21.28875 | 127.65185 | 34953 ft | 507 kts | 34° |
| 2026-05-06 09:27 | 21.34480 | 127.69783 | 34953 ft | 508 kts | 34° |
| 2026-05-06 09:27 | 21.40070 | 127.74372 | 34954 ft | 508 kts | 34° |
| 2026-05-06 09:28 | 21.45693 | 127.78992 | 34954 ft | 509 kts | 34° |
| 2026-05-06 09:28 | 21.51338 | 127.83635 | 34954 ft | 509 kts | 34° |
| 2026-05-06 09:29 | 21.56933 | 127.88244 | 34954 ft | 510 kts | 34° |
| 2026-05-06 09:29 | 21.62582 | 127.92899 | 34953 ft | 510 kts | 34° |
| 2026-05-06 09:30 | 21.68196 | 127.97530 | 34954 ft | 511 kts | 34° |
| 2026-05-06 09:30 | 21.73835 | 128.02187 | 34955 ft | 511 kts | 34° |
| 2026-05-06 09:31 | 21.79481 | 128.06857 | 34954 ft | 511 kts | 34° |
| 2026-05-06 09:31 | 21.85102 | 128.11510 | 34957 ft | 512 kts | 34° |
| 2026-05-06 09:32 | 21.90765 | 128.16202 | 34955 ft | 512 kts | 34° |
| 2026-05-06 09:32 | 21.96411 | 128.20883 | 34956 ft | 512 kts | 34° |
| 2026-05-06 09:33 | 22.02049 | 128.25565 | 34958 ft | 512 kts | 34° |
| 2026-05-06 09:33 | 22.07712 | 128.30270 | 34962 ft | 512 kts | 34° |
| 2026-05-06 09:34 | 22.13347 | 128.34958 | 34961 ft | 512 kts | 34° |
| 2026-05-06 09:34 | 22.18993 | 128.39659 | 34966 ft | 514 kts | 34° |
| 2026-05-06 09:35 | 22.24662 | 128.44386 | 34965 ft | 514 kts | 34° |
| 2026-05-06 09:35 | 22.30332 | 128.49118 | 34966 ft | 514 kts | 34° |
| 2026-05-06 09:36 | 22.35980 | 128.53838 | 34971 ft | 515 kts | 34° |
| 2026-05-06 09:36 | 22.41663 | 128.58588 | 34973 ft | 516 kts | 34° |
| 2026-05-06 09:37 | 22.47327 | 128.63332 | 34974 ft | 516 kts | 34° |
| 2026-05-06 09:37 | 22.52971 | 128.68063 | 34972 ft | 516 kts | 34° |
| 2026-05-06 09:38 | 22.58670 | 128.72845 | 34975 ft | 516 kts | 34° |
| 2026-05-06 09:38 | 22.64347 | 128.77612 | 34973 ft | 517 kts | 34° |
| 2026-05-06 09:39 | 22.70027 | 128.82391 | 34973 ft | 517 kts | 34° |
| 2026-05-06 09:39 | 22.75703 | 128.87169 | 34974 ft | 518 kts | 34° |
| 2026-05-06 09:40 | 22.81396 | 128.91969 | 34971 ft | 519 kts | 34° |
| 2026-05-06 09:40 | 22.89933 | 128.99181 | 34975 ft | 520 kts | 34° |
| 2026-05-06 09:41 | 22.95632 | 129.04004 | 34974 ft | 520 kts | 34° |
| 2026-05-06 09:41 | 23.01348 | 129.08768 | 34975 ft | 519 kts | 32° |
| 2026-05-06 09:42 | 23.07285 | 129.13295 | 34976 ft | 519 kts | 31° |
| 2026-05-06 09:42 | 23.13191 | 129.17757 | 34979 ft | 520 kts | 31° |
| 2026-05-06 09:43 | 23.19112 | 129.22255 | 34980 ft | 519 kts | 32° |
| 2026-05-06 09:43 | 23.25051 | 129.26781 | 34982 ft | 519 kts | 32° |
| 2026-05-06 09:44 | 23.30936 | 129.31276 | 34983 ft | 519 kts | 32° |
| 2026-05-06 09:44 | 23.36859 | 129.35802 | 34979 ft | 520 kts | 32° |
| 2026-05-06 09:45 | 23.42767 | 129.40321 | 34978 ft | 521 kts | 32° |
| 2026-05-06 09:45 | 23.48726 | 129.44888 | 34984 ft | 521 kts | 32° |
| 2026-05-06 09:46 | 23.54642 | 129.49425 | 34989 ft | 522 kts | 32° |
| 2026-05-06 09:46 | 23.60579 | 129.53984 | 34993 ft | 522 kts | 32° |
| 2026-05-06 09:47 | 23.66516 | 129.58550 | 34992 ft | 523 kts | 32° |
| 2026-05-06 09:47 | 23.72470 | 129.63130 | 34992 ft | 523 kts | 32° |
| 2026-05-06 09:48 | 23.78394 | 129.67693 | 34992 ft | 523 kts | 32° |
| 2026-05-06 09:48 | 23.84323 | 129.72269 | 34994 ft | 524 kts | 33° |
| 2026-05-06 09:49 | 23.90295 | 129.76880 | 34996 ft | 525 kts | 32° |
| 2026-05-06 09:49 | 23.96246 | 129.81479 | 34996 ft | 526 kts | 33° |
| 2026-05-06 09:50 | 24.02223 | 129.86107 | 34994 ft | 526 kts | 32° |
| 2026-05-06 09:50 | 24.08220 | 129.90753 | 34995 ft | 526 kts | 33° |
| 2026-05-06 09:51 | 24.14206 | 129.95398 | 34994 ft | 527 kts | 33° |
| 2026-05-06 09:51 | 24.20153 | 130.00021 | 34996 ft | 527 kts | 33° |
| 2026-05-06 09:52 | 24.26144 | 130.04684 | 34997 ft | 528 kts | 33° |
| 2026-05-06 09:52 | 24.32107 | 130.09335 | 34998 ft | 527 kts | 33° |
| 2026-05-06 09:53 | 24.38129 | 130.13991 | 34996 ft | 527 kts | 32° |
| 2026-05-06 09:53 | 24.44151 | 130.18497 | 34995 ft | 526 kts | 32° |
| 2026-05-06 09:54 | 24.50207 | 130.23027 | 34992 ft | 527 kts | 32° |
| 2026-05-06 09:54 | 24.56273 | 130.27589 | 34989 ft | 527 kts | 32° |
| 2026-05-06 09:55 | 24.62299 | 130.32136 | 34989 ft | 528 kts | 32° |
| 2026-05-06 09:55 | 24.68363 | 130.36716 | 34989 ft | 528 kts | 32° |
| 2026-05-06 09:56 | 24.74421 | 130.41298 | 34988 ft | 528 kts | 32° |
| 2026-05-06 09:56 | 24.80477 | 130.45886 | 34985 ft | 528 kts | 33° |
| 2026-05-06 09:57 | 24.86482 | 130.50439 | 34981 ft | 527 kts | 33° |
| 2026-05-06 09:57 | 24.92536 | 130.55034 | 34986 ft | 527 kts | 33° |
| 2026-05-06 09:58 | 24.98543 | 130.59599 | 34986 ft | 527 kts | 33° |
| 2026-05-06 09:58 | 25.04598 | 130.64210 | 34996 ft | 527 kts | 33° |
| 2026-05-06 09:59 | 25.10586 | 130.68776 | 34990 ft | 527 kts | 33° |
| 2026-05-06 09:59 | 25.16617 | 130.73375 | 34998 ft | 527 kts | 34° |
| 2026-05-06 10:00 | 25.22665 | 130.77997 | 35000 ft | 528 kts | 34° |
| 2026-05-06 10:00 | 25.28720 | 130.82628 | 35001 ft | 527 kts | 34° |
| 2026-05-06 10:01 | 25.34725 | 130.87227 | 35007 ft | 527 kts | 34° |
| 2026-05-06 10:01 | 25.40771 | 130.91862 | 35000 ft | 527 kts | 34° |
| 2026-05-06 10:02 | 25.46794 | 130.96486 | 35005 ft | 528 kts | 34° |
| 2026-05-06 10:02 | 25.52800 | 131.01102 | 34999 ft | 528 kts | 34° |
| 2026-05-06 10:03 | 25.58825 | 131.05740 | 35002 ft | 527 kts | 34° |
| 2026-05-06 10:03 | 25.64839 | 131.10378 | 34992 ft | 527 kts | 34° |
| 2026-05-06 10:04 | 25.70840 | 131.15012 | 34992 ft | 527 kts | 34° |
| 2026-05-06 10:04 | 25.76847 | 131.19656 | 35004 ft | 527 kts | 34° |
| 2026-05-06 10:05 | 25.82863 | 131.24316 | 35010 ft | 528 kts | 34° |
| 2026-05-06 10:05 | 25.88751 | 131.29234 | 35013 ft | 528 kts | 39° |
| 2026-05-06 10:06 | 25.94449 | 131.34378 | 35013 ft | 527 kts | 39° |
| 2026-05-06 10:06 | 26.00121 | 131.39535 | 35013 ft | 527 kts | 39° |
| 2026-05-06 10:07 | 26.05766 | 131.44664 | 35016 ft | 527 kts | 39° |
| 2026-05-06 10:07 | 26.11426 | 131.49809 | 35005 ft | 526 kts | 39° |
| 2026-05-06 10:08 | 26.17084 | 131.54958 | 35017 ft | 526 kts | 39° |
| 2026-05-06 10:08 | 26.22751 | 131.60117 | 35014 ft | 525 kts | 39° |
| 2026-05-06 10:09 | 26.28419 | 131.65282 | 35022 ft | 525 kts | 40° |
| 2026-05-06 10:09 | 26.34036 | 131.70406 | 35019 ft | 525 kts | 40° |
| 2026-05-06 10:10 | 26.39679 | 131.75562 | 35030 ft | 524 kts | 40° |
| 2026-05-06 10:10 | 26.45301 | 131.80705 | 35025 ft | 524 kts | 40° |
| 2026-05-06 10:11 | 26.50947 | 131.85881 | 35028 ft | 523 kts | 40° |
| 2026-05-06 10:11 | 26.56542 | 131.91011 | 35034 ft | 523 kts | 40° |
| 2026-05-06 10:12 | 26.62169 | 131.96175 | 35034 ft | 522 kts | 40° |
| 2026-05-06 10:12 | 26.67775 | 132.01327 | 35033 ft | 522 kts | 40° |
| 2026-05-06 10:13 | 26.73378 | 132.06488 | 35031 ft | 521 kts | 40° |
| 2026-05-06 10:13 | 26.78933 | 132.11610 | 35031 ft | 521 kts | 40° |
| 2026-05-06 10:14 | 26.84545 | 132.16791 | 35037 ft | 523 kts | 40° |
| 2026-05-06 10:14 | 26.90131 | 132.21957 | 35036 ft | 522 kts | 40° |
| 2026-05-06 10:15 | 26.95729 | 132.27138 | 35034 ft | 522 kts | 40° |
| 2026-05-06 10:15 | 27.01339 | 132.32340 | 35034 ft | 523 kts | 40° |
| 2026-05-06 10:16 | 27.06927 | 132.37526 | 35029 ft | 522 kts | 40° |
| 2026-05-06 10:16 | 27.12505 | 132.42711 | 35023 ft | 523 kts | 40° |
| 2026-05-06 10:17 | 27.18149 | 132.47966 | 35189 ft | 526 kts | 40° |
| 2026-05-06 10:17 | 27.20933 | 132.50562 | 35579 ft | 524 kts | 40° |
| 2026-05-06 10:17 | 27.23745 | 132.53183 | 35944 ft | 522 kts | 40° |
| 2026-05-06 10:18 | 27.26521 | 132.55771 | 36242 ft | 522 kts | 40° |
| 2026-05-06 10:18 | 27.29286 | 132.58354 | 36472 ft | 522 kts | 40° |
| 2026-05-06 10:18 | 27.32108 | 132.60992 | 36717 ft | 523 kts | 41° |
| 2026-05-06 10:18 | 27.34876 | 132.63580 | 36962 ft | 523 kts | 40° |
| 2026-05-06 10:19 | 27.40474 | 132.68820 | 37029 ft | 524 kts | 41° |
| 2026-05-06 10:19 | 27.46077 | 132.74074 | 37035 ft | 525 kts | 41° |
| 2026-05-06 10:20 | 27.51687 | 132.79338 | 37035 ft | 524 kts | 41° |
| 2026-05-06 10:20 | 27.57283 | 132.84599 | 37033 ft | 524 kts | 41° |
| 2026-05-06 10:21 | 27.62853 | 132.89841 | 37036 ft | 524 kts | 41° |
| 2026-05-06 10:21 | 27.68469 | 132.95132 | 37046 ft | 523 kts | 40° |
| 2026-05-06 10:22 | 27.74039 | 133.00394 | 37041 ft | 523 kts | 40° |
| 2026-05-06 10:22 | 27.79591 | 133.05641 | 37026 ft | 522 kts | 40° |
| 2026-05-06 10:23 | 27.85156 | 133.10912 | 37024 ft | 522 kts | 40° |
| 2026-05-06 10:23 | 27.90715 | 133.16185 | 37024 ft | 522 kts | 40° |
| 2026-05-06 10:24 | 27.96224 | 133.21431 | 37023 ft | 521 kts | 40° |
| 2026-05-06 10:24 | 28.01753 | 133.26710 | 37020 ft | 520 kts | 40° |
| 2026-05-06 10:25 | 28.07253 | 133.31976 | 37024 ft | 519 kts | 40° |
| 2026-05-06 10:25 | 28.12781 | 133.37279 | 37024 ft | 520 kts | 40° |
| 2026-05-06 10:26 | 28.18267 | 133.42546 | 37032 ft | 518 kts | 40° |
| 2026-05-06 10:26 | 28.23749 | 133.47818 | 37032 ft | 519 kts | 40° |
| 2026-05-06 10:27 | 28.29254 | 133.53117 | 37031 ft | 518 kts | 40° |
| 2026-05-06 10:27 | 28.34751 | 133.58421 | 37034 ft | 520 kts | 40° |
| 2026-05-06 10:28 | 28.40255 | 133.63744 | 37032 ft | 519 kts | 40° |
| 2026-05-06 10:28 | 28.45768 | 133.69075 | 37024 ft | 519 kts | 40° |
| 2026-05-06 10:29 | 28.51240 | 133.74387 | 37024 ft | 518 kts | 40° |
| 2026-05-06 10:29 | 28.56693 | 133.79689 | 37020 ft | 518 kts | 40° |
| 2026-05-06 10:30 | 28.62167 | 133.84998 | 37021 ft | 518 kts | 40° |
| 2026-05-06 10:30 | 28.67648 | 133.90309 | 37019 ft | 518 kts | 40° |
| 2026-05-06 10:31 | 28.73108 | 133.95622 | 37021 ft | 518 kts | 40° |
| 2026-05-06 10:31 | 28.78574 | 134.00954 | 37018 ft | 517 kts | 40° |
| 2026-05-06 10:32 | 28.84065 | 134.06320 | 37023 ft | 519 kts | 40° |
| 2026-05-06 10:32 | 28.89530 | 134.11665 | 37025 ft | 519 kts | 40° |
| 2026-05-06 10:33 | 28.94967 | 134.16992 | 37036 ft | 517 kts | 40° |
| 2026-05-06 10:33 | 29.00448 | 134.22372 | 37041 ft | 518 kts | 40° |
| 2026-05-06 10:34 | 29.05901 | 134.27730 | 37041 ft | 519 kts | 40° |
| 2026-05-06 10:34 | 29.11381 | 134.33124 | 37040 ft | 519 kts | 40° |
| 2026-05-06 10:35 | 29.16850 | 134.38515 | 37047 ft | 519 kts | 40° |
| 2026-05-06 10:35 | 29.22283 | 134.43877 | 37045 ft | 519 kts | 40° |
| 2026-05-06 10:36 | 29.27770 | 134.49300 | 37045 ft | 519 kts | 40° |
| 2026-05-06 10:36 | 29.33207 | 134.54678 | 37045 ft | 520 kts | 40° |
| 2026-05-06 10:37 | 29.38689 | 134.60115 | 37037 ft | 520 kts | 40° |
| 2026-05-06 10:37 | 29.44162 | 134.65549 | 37040 ft | 520 kts | 40° |
| 2026-05-06 10:38 | 29.49613 | 134.70967 | 37036 ft | 520 kts | 40° |
| 2026-05-06 10:38 | 29.55062 | 134.76401 | 37036 ft | 520 kts | 40° |
| 2026-05-06 10:39 | 29.60495 | 134.81819 | 37035 ft | 520 kts | 40° |
| 2026-05-06 10:39 | 29.65943 | 134.87267 | 37038 ft | 519 kts | 40° |
| 2026-05-06 10:40 | 29.71402 | 134.92725 | 37033 ft | 519 kts | 40° |
| 2026-05-06 10:40 | 29.76829 | 134.98160 | 37028 ft | 519 kts | 40° |
| 2026-05-06 10:41 | 29.82249 | 135.03600 | 37028 ft | 519 kts | 40° |
| 2026-05-06 10:41 | 29.87681 | 135.09061 | 37028 ft | 519 kts | 40° |
| 2026-05-06 10:42 | 29.93113 | 135.14529 | 37025 ft | 520 kts | 40° |
| 2026-05-06 10:42 | 29.98547 | 135.20007 | 37032 ft | 520 kts | 40° |
| 2026-05-06 10:43 | 30.04018 | 135.25534 | 37020 ft | 520 kts | 39° |
| 2026-05-06 10:44 | 30.12141 | 135.33763 | 37033 ft | 521 kts | 39° |
| 2026-05-06 10:44 | 30.17654 | 135.39223 | 37027 ft | 521 kts | 38° |
| 2026-05-06 10:45 | 30.23139 | 135.44604 | 37016 ft | 520 kts | 38° |
| 2026-05-06 10:45 | 30.28651 | 135.50041 | 37034 ft | 521 kts | 39° |
| 2026-05-06 10:46 | 30.34155 | 135.55490 | 37023 ft | 522 kts | 38° |
| 2026-05-06 10:46 | 30.39642 | 135.60931 | 37026 ft | 521 kts | 39° |
| 2026-05-06 10:47 | 30.45141 | 135.66396 | 37024 ft | 522 kts | 39° |
| 2026-05-06 10:47 | 30.50634 | 135.71864 | 37024 ft | 522 kts | 39° |
| 2026-05-06 10:48 | 30.56165 | 135.77377 | 37028 ft | 523 kts | 39° |
| 2026-05-06 10:48 | 30.61683 | 135.82886 | 37023 ft | 523 kts | 39° |
| 2026-05-06 10:49 | 30.67169 | 135.88374 | 37024 ft | 522 kts | 39° |
| 2026-05-06 10:49 | 30.72668 | 135.93878 | 37024 ft | 522 kts | 39° |
| 2026-05-06 10:50 | 30.78163 | 135.99391 | 37022 ft | 523 kts | 39° |
| 2026-05-06 10:50 | 30.83656 | 136.04909 | 37023 ft | 522 kts | 39° |
| 2026-05-06 10:51 | 30.89102 | 136.10388 | 37025 ft | 521 kts | 39° |
| 2026-05-06 10:51 | 30.94592 | 136.15924 | 37026 ft | 521 kts | 38° |
| 2026-05-06 10:52 | 31.00059 | 136.21440 | 37024 ft | 523 kts | 38° |
| 2026-05-06 10:52 | 31.05552 | 136.26991 | 37021 ft | 523 kts | 39° |
| 2026-05-06 10:53 | 31.11075 | 136.32588 | 37022 ft | 523 kts | 39° |
| 2026-05-06 10:53 | 31.16543 | 136.38135 | 37024 ft | 523 kts | 39° |
| 2026-05-06 10:54 | 31.22048 | 136.43727 | 37027 ft | 524 kts | 39° |
| 2026-05-06 10:54 | 31.27513 | 136.49292 | 37028 ft | 525 kts | 39° |
| 2026-05-06 10:55 | 31.33014 | 136.54903 | 37032 ft | 525 kts | 39° |
| 2026-05-06 10:55 | 31.38490 | 136.60503 | 37034 ft | 525 kts | 39° |
| 2026-05-06 10:56 | 31.43992 | 136.66133 | 37031 ft | 525 kts | 39° |
| 2026-05-06 10:56 | 31.49461 | 136.71722 | 37035 ft | 524 kts | 39° |
| 2026-05-06 10:57 | 31.54955 | 136.77359 | 37038 ft | 525 kts | 39° |
| 2026-05-06 10:57 | 31.60423 | 136.82987 | 37041 ft | 524 kts | 39° |
| 2026-05-06 10:58 | 31.65897 | 136.88634 | 37044 ft | 525 kts | 40° |
| 2026-05-06 10:58 | 31.71403 | 136.94321 | 37047 ft | 525 kts | 39° |
| 2026-05-06 10:59 | 31.76837 | 136.99944 | 37055 ft | 525 kts | 40° |
| 2026-05-06 10:59 | 31.82305 | 137.05612 | 37057 ft | 525 kts | 40° |
| 2026-05-06 11:00 | 31.87791 | 137.11308 | 37060 ft | 525 kts | 40° |
| 2026-05-06 11:00 | 31.93243 | 137.16981 | 37059 ft | 525 kts | 39° |
| 2026-05-06 11:01 | 31.98728 | 137.22690 | 37064 ft | 524 kts | 40° |
| 2026-05-06 11:01 | 32.04157 | 137.28357 | 37066 ft | 525 kts | 40° |
| 2026-05-06 11:02 | 32.09617 | 137.34061 | 37067 ft | 526 kts | 40° |
| 2026-05-06 11:02 | 32.15074 | 137.39780 | 37070 ft | 526 kts | 40° |
| 2026-05-06 11:03 | 32.20560 | 137.45534 | 37071 ft | 527 kts | 40° |
| 2026-05-06 11:03 | 32.26023 | 137.51271 | 37073 ft | 528 kts | 39° |
| 2026-05-06 11:04 | 32.31501 | 137.57036 | 37075 ft | 528 kts | 40° |
| 2026-05-06 11:04 | 32.36968 | 137.62796 | 37080 ft | 530 kts | 39° |
| 2026-05-06 11:05 | 32.42469 | 137.68607 | 37076 ft | 529 kts | 40° |
| 2026-05-06 11:05 | 32.47964 | 137.74416 | 37078 ft | 530 kts | 39° |
| 2026-05-06 11:06 | 32.53432 | 137.80211 | 37078 ft | 531 kts | 40° |
| 2026-05-06 11:06 | 32.58947 | 137.86063 | 37077 ft | 531 kts | 40° |
| 2026-05-06 11:07 | 32.64422 | 137.91890 | 37079 ft | 531 kts | 39° |
| 2026-05-06 11:07 | 32.69937 | 137.97765 | 37081 ft | 532 kts | 39° |
| 2026-05-06 11:08 | 32.75434 | 138.03633 | 37081 ft | 532 kts | 39° |
| 2026-05-06 11:08 | 32.80905 | 138.09485 | 37079 ft | 532 kts | 39° |
| 2026-05-06 11:09 | 32.86411 | 138.15389 | 37085 ft | 532 kts | 39° |
| 2026-05-06 11:09 | 32.91825 | 138.21378 | 37084 ft | 532 kts | 41° |
| 2026-05-06 11:10 | 32.97131 | 138.27496 | 37082 ft | 533 kts | 41° |
| 2026-05-06 11:10 | 33.02442 | 138.33623 | 37081 ft | 531 kts | 41° |
| 2026-05-06 11:11 | 33.07772 | 138.39763 | 37083 ft | 532 kts | 41° |
| 2026-05-06 11:11 | 33.13071 | 138.45869 | 37086 ft | 532 kts | 41° |
| 2026-05-06 11:12 | 33.18396 | 138.52020 | 37089 ft | 532 kts | 41° |
| 2026-05-06 11:12 | 33.23686 | 138.58136 | 37092 ft | 533 kts | 41° |
| 2026-05-06 11:13 | 33.28991 | 138.64287 | 37095 ft | 533 kts | 41° |
| 2026-05-06 11:13 | 33.34334 | 138.70489 | 37093 ft | 533 kts | 41° |
| 2026-05-06 11:14 | 33.39657 | 138.76675 | 37099 ft | 534 kts | 41° |
| 2026-05-06 11:14 | 33.44948 | 138.82846 | 37103 ft | 534 kts | 41° |
| 2026-05-06 11:15 | 33.50272 | 138.89059 | 37108 ft | 534 kts | 41° |
| 2026-05-06 11:15 | 33.55577 | 138.95274 | 37110 ft | 534 kts | 41° |
| 2026-05-06 11:16 | 33.60879 | 139.01483 | 37119 ft | 535 kts | 41° |
| 2026-05-06 11:16 | 33.66189 | 139.07698 | 37120 ft | 536 kts | 41° |
| 2026-05-06 11:17 | 33.71531 | 139.13956 | 37125 ft | 535 kts | 41° |
| 2026-05-06 11:17 | 33.76843 | 139.20204 | 37127 ft | 536 kts | 41° |
| 2026-05-06 11:18 | 33.82161 | 139.26476 | 37131 ft | 536 kts | 41° |
| 2026-05-06 11:18 | 33.87467 | 139.32753 | 37135 ft | 537 kts | 41° |
| 2026-05-06 11:19 | 33.92777 | 139.39035 | 37137 ft | 536 kts | 41° |
| 2026-05-06 11:19 | 33.98091 | 139.45344 | 37137 ft | 537 kts | 41° |
| 2026-05-06 11:20 | 34.03379 | 139.51637 | 37140 ft | 537 kts | 41° |
| 2026-05-06 11:20 | 34.08445 | 139.58279 | 37121 ft | 539 kts | 49° |
| 2026-05-06 11:21 | 34.12962 | 139.65526 | 37141 ft | 543 kts | 52° |
| 2026-05-06 11:21 | 34.17355 | 139.72864 | 37140 ft | 545 kts | 52° |
| 2026-05-06 11:22 | 34.21775 | 139.80237 | 37142 ft | 543 kts | 52° |
| 2026-05-06 11:22 | 34.26233 | 139.87633 | 37141 ft | 544 kts | 52° |
| 2026-05-06 11:23 | 34.30656 | 139.94984 | 37145 ft | 544 kts | 52° |
| 2026-05-06 11:23 | 34.35122 | 140.02423 | 37146 ft | 546 kts | 52° |
| 2026-05-06 11:24 | 34.39546 | 140.09811 | 37144 ft | 546 kts | 52° |
| 2026-05-06 11:24 | 34.44003 | 140.17256 | 37148 ft | 545 kts | 52° |
| 2026-05-06 11:25 | 34.48436 | 140.24681 | 37150 ft | 546 kts | 52° |
| 2026-05-06 11:25 | 34.52884 | 140.32146 | 37151 ft | 546 kts | 52° |
| 2026-05-06 11:26 | 34.57309 | 140.39604 | 37156 ft | 546 kts | 52° |
| 2026-05-06 11:26 | 34.61736 | 140.47073 | 37153 ft | 547 kts | 52° |
| 2026-05-06 11:27 | 34.66174 | 140.54579 | 37159 ft | 548 kts | 52° |
| 2026-05-06 11:27 | 34.70582 | 140.62038 | 37160 ft | 548 kts | 51° |
| 2026-05-06 11:28 | 34.75007 | 140.69548 | 37159 ft | 546 kts | 52° |
| 2026-05-06 11:28 | 34.79438 | 140.77089 | 37163 ft | 549 kts | 52° |
| 2026-05-06 11:29 | 34.83859 | 140.84647 | 37165 ft | 549 kts | 52° |
| 2026-05-06 11:29 | 34.88273 | 140.92201 | 37160 ft | 549 kts | 52° |
| 2026-05-06 11:30 | 34.92709 | 140.99750 | 37163 ft | 550 kts | 52° |
| 2026-05-06 11:30 | 34.97145 | 141.07350 | 37162 ft | 550 kts | 53° |
| 2026-05-06 11:31 | 35.01555 | 141.14928 | 37168 ft | 551 kts | 53° |
| 2026-05-06 11:31 | 35.05979 | 141.22545 | 37164 ft | 550 kts | 53° |
| 2026-05-06 11:32 | 35.10363 | 141.30124 | 37165 ft | 550 kts | 52° |
| 2026-05-06 11:32 | 35.14788 | 141.37770 | 37166 ft | 552 kts | 53° |
| 2026-05-06 11:33 | 35.19177 | 141.45393 | 37174 ft | 550 kts | 52° |
| 2026-05-06 11:33 | 35.23580 | 141.53040 | 37174 ft | 550 kts | 52° |
| 2026-05-06 11:34 | 35.27966 | 141.60680 | 37174 ft | 552 kts | 53° |
| 2026-05-06 11:34 | 35.32369 | 141.68358 | 37174 ft | 552 kts | 53° |
| 2026-05-06 11:35 | 35.36767 | 141.76054 | 37179 ft | 553 kts | 53° |
| 2026-05-06 11:35 | 35.41163 | 141.83760 | 37178 ft | 553 kts | 53° |
| 2026-05-06 11:36 | 35.45553 | 141.91486 | 37183 ft | 554 kts | 52° |
| 2026-05-06 11:36 | 35.49924 | 141.99179 | 37185 ft | 553 kts | 52° |
| 2026-05-06 11:37 | 35.54318 | 142.06932 | 37184 ft | 554 kts | 52° |
| 2026-05-06 11:37 | 35.58681 | 142.14656 | 37185 ft | 554 kts | 53° |
| 2026-05-06 11:38 | 35.63058 | 142.22424 | 37183 ft | 555 kts | 53° |
| 2026-05-06 11:38 | 35.67449 | 142.30220 | 37185 ft | 556 kts | 53° |
| 2026-05-06 11:39 | 35.71822 | 142.38037 | 37184 ft | 556 kts | 52° |
| 2026-05-06 11:39 | 35.76196 | 142.45854 | 37184 ft | 556 kts | 53° |
| 2026-05-06 11:40 | 35.80130 | 142.54047 | 37185 ft | 558 kts | 63° |
| 2026-05-06 11:40 | 35.83029 | 142.62904 | 37184 ft | 559 kts | 73° |
| 2026-05-06 11:41 | 35.84830 | 142.72122 | 37184 ft | 557 kts | 81° |
| 2026-05-06 11:41 | 35.86291 | 142.81502 | 37183 ft | 558 kts | 81° |
| 2026-05-06 11:42 | 35.87788 | 142.90840 | 37184 ft | 557 kts | 81° |
| 2026-05-06 11:42 | 35.89310 | 143.00192 | 37187 ft | 556 kts | 80° |
| 2026-05-06 11:43 | 35.90830 | 143.09476 | 37193 ft | 556 kts | 80° |
| 2026-05-06 11:43 | 35.92346 | 143.18800 | 37196 ft | 556 kts | 80° |
| 2026-05-06 11:44 | 35.94098 | 143.32846 | 37196 ft | 555 kts | 85° |
| 2026-05-06 11:44 | 35.95050 | 143.42259 | 37193 ft | 555 kts | 85° |
| 2026-05-06 11:45 | 35.96000 | 143.51688 | 37201 ft | 554 kts | 85° |
| 2026-05-06 11:45 | 35.96956 | 143.61119 | 37205 ft | 554 kts | 85° |
| 2026-05-06 11:46 | 35.97903 | 143.70482 | 37207 ft | 554 kts | 85° |
| 2026-05-06 11:46 | 35.98843 | 143.79923 | 37214 ft | 553 kts | 86° |
| 2026-05-06 11:47 | 35.99774 | 143.89327 | 37220 ft | 554 kts | 85° |
| 2026-05-06 11:47 | 36.00700 | 143.98692 | 37222 ft | 554 kts | 85° |
| 2026-05-06 11:48 | 36.01616 | 144.08092 | 37226 ft | 554 kts | 85° |
| 2026-05-06 11:48 | 36.02529 | 144.17506 | 37227 ft | 553 kts | 86° |
| 2026-05-06 11:49 | 36.03430 | 144.26939 | 37228 ft | 555 kts | 86° |
| 2026-05-06 11:49 | 36.04327 | 144.36360 | 37224 ft | 557 kts | 85° |
| 2026-05-06 11:50 | 36.05226 | 144.45839 | 37230 ft | 556 kts | 86° |
| 2026-05-06 11:50 | 36.06108 | 144.55295 | 37230 ft | 557 kts | 85° |
| 2026-05-06 11:51 | 36.06982 | 144.64725 | 37236 ft | 557 kts | 85° |
| 2026-05-06 11:51 | 36.07853 | 144.74229 | 37231 ft | 557 kts | 86° |
| 2026-05-06 11:52 | 36.08719 | 144.83736 | 37231 ft | 560 kts | 86° |
| 2026-05-06 11:52 | 36.09582 | 144.93236 | 37235 ft | 559 kts | 86° |
| 2026-05-06 11:53 | 36.10429 | 145.02754 | 37234 ft | 561 kts | 86° |
| 2026-05-06 11:53 | 36.11277 | 145.12341 | 37236 ft | 561 kts | 86° |
| 2026-05-06 11:54 | 36.12114 | 145.21886 | 37233 ft | 560 kts | 85° |
| 2026-05-06 11:54 | 36.12938 | 145.31387 | 37232 ft | 559 kts | 85° |
| 2026-05-06 11:55 | 36.13757 | 145.40927 | 37228 ft | 559 kts | 85° |
| 2026-05-06 11:55 | 36.15000 | 145.50389 | 37222 ft | 560 kts | 76° |
| 2026-05-06 11:56 | 36.16928 | 145.59715 | 37230 ft | 561 kts | 75° |
| 2026-05-06 11:56 | 36.18927 | 145.69032 | 37229 ft | 563 kts | 75° |
| 2026-05-06 11:57 | 36.20898 | 145.78386 | 37231 ft | 562 kts | 76° |
| 2026-05-06 11:57 | 36.22836 | 145.87750 | 37234 ft | 563 kts | 75° |
| 2026-05-06 11:58 | 36.24765 | 145.97095 | 37238 ft | 563 kts | 76° |
| 2026-05-06 11:58 | 36.26683 | 146.06435 | 37240 ft | 563 kts | 75° |
| 2026-05-06 11:59 | 36.28604 | 146.15857 | 37240 ft | 564 kts | 75° |
| 2026-05-06 11:59 | 36.30506 | 146.25218 | 37241 ft | 564 kts | 76° |
| 2026-05-06 12:00 | 36.32412 | 146.34633 | 37240 ft | 564 kts | 75° |
| 2026-05-06 12:00 | 36.34295 | 146.44002 | 37243 ft | 563 kts | 75° |
| 2026-05-06 12:01 | 36.36187 | 146.53400 | 37245 ft | 563 kts | 75° |
| 2026-05-06 12:01 | 36.38071 | 146.62834 | 37241 ft | 564 kts | 75° |
| 2026-05-06 12:02 | 36.39948 | 146.72255 | 37242 ft | 564 kts | 76° |
| 2026-05-06 12:02 | 36.41808 | 146.81624 | 37251 ft | 564 kts | 75° |
| 2026-05-06 12:03 | 36.43668 | 146.91066 | 37262 ft | 565 kts | 76° |
| 2026-05-06 12:03 | 36.45522 | 147.00493 | 37266 ft | 565 kts | 76° |
| 2026-05-06 12:04 | 36.47376 | 147.10007 | 37264 ft | 566 kts | 75° |
| 2026-05-06 12:04 | 36.49219 | 147.19482 | 37268 ft | 567 kts | 75° |
| 2026-05-06 12:05 | 36.51071 | 147.28996 | 37267 ft | 567 kts | 75° |
| 2026-05-06 12:05 | 36.52900 | 147.38504 | 37269 ft | 568 kts | 76° |
| 2026-05-06 12:06 | 36.54726 | 147.48024 | 37268 ft | 569 kts | 75° |
| 2026-05-06 12:06 | 36.56547 | 147.57548 | 37265 ft | 570 kts | 74° |
| 2026-05-06 12:07 | 36.58361 | 147.67110 | 37261 ft | 570 kts | 76° |
| 2026-05-06 12:07 | 36.60176 | 147.76678 | 37257 ft | 569 kts | 75° |
| 2026-05-06 12:08 | 36.61975 | 147.86243 | 37259 ft | 569 kts | 75° |
| 2026-05-06 12:08 | 36.63778 | 147.95830 | 37262 ft | 571 kts | 76° |
| 2026-05-06 12:09 | 36.65573 | 148.05473 | 37264 ft | 572 kts | 75° |
| 2026-05-06 12:09 | 36.67362 | 148.15114 | 37271 ft | 573 kts | 75° |
| 2026-05-06 12:10 | 36.69128 | 148.24696 | 37271 ft | 572 kts | 74° |
| 2026-05-06 12:10 | 36.70909 | 148.34345 | 37277 ft | 573 kts | 74° |
| 2026-05-06 12:11 | 36.72670 | 148.43979 | 37272 ft | 572 kts | 75° |
| 2026-05-06 12:11 | 36.74431 | 148.53633 | 37276 ft | 573 kts | 74° |
| 2026-05-06 12:12 | 36.76175 | 148.63272 | 37277 ft | 572 kts | 74° |
| 2026-05-06 12:12 | 36.77916 | 148.72911 | 37274 ft | 573 kts | 74° |
| 2026-05-06 12:13 | 36.79659 | 148.82608 | 37282 ft | 573 kts | 74° |
| 2026-05-06 12:13 | 36.81379 | 148.92224 | 37288 ft | 573 kts | 75° |
| 2026-05-06 12:14 | 36.83102 | 149.01938 | 37285 ft | 573 kts | 75° |
| 2026-05-06 12:14 | 36.84810 | 149.11614 | 37292 ft | 572 kts | 75° |
| 2026-05-06 12:15 | 36.86500 | 149.21227 | 37292 ft | 574 kts | 75° |
| 2026-05-06 12:15 | 36.88207 | 149.30980 | 37292 ft | 575 kts | 75° |
| 2026-05-06 12:16 | 36.89888 | 149.40662 | 37289 ft | 575 kts | 75° |
| 2026-05-06 12:16 | 36.91571 | 149.50380 | 37288 ft | 575 kts | 74° |
| 2026-05-06 12:17 | 36.93251 | 149.60135 | 37284 ft | 574 kts | 75° |
| 2026-05-06 12:17 | 36.94920 | 149.69861 | 37279 ft | 576 kts | 74° |
| 2026-05-06 12:18 | 36.96567 | 149.79562 | 37284 ft | 574 kts | 75° |
| 2026-05-06 12:18 | 36.98219 | 149.89329 | 37287 ft | 576 kts | 75° |
| 2026-05-06 12:19 | 37.00087 | 149.99019 | 37287 ft | 574 kts | 69° |
| 2026-05-06 12:19 | 37.02849 | 150.08269 | 37297 ft | 568 kts | 59° |
| 2026-05-06 12:20 | 37.06099 | 150.17288 | 37304 ft | 567 kts | 59° |
| 2026-05-06 12:20 | 37.09327 | 150.26241 | 37307 ft | 566 kts | 59° |
| 2026-05-06 12:21 | 37.12518 | 150.35216 | 37311 ft | 566 kts | 59° |
| 2026-05-06 12:21 | 37.15678 | 150.44188 | 37312 ft | 567 kts | 59° |
| 2026-05-06 12:22 | 37.18836 | 150.53214 | 37311 ft | 566 kts | 60° |
| 2026-05-06 12:22 | 37.21977 | 150.62193 | 37304 ft | 566 kts | 60° |
| 2026-05-06 12:23 | 37.25131 | 150.71243 | 37298 ft | 566 kts | 59° |
| 2026-05-06 12:23 | 37.28276 | 150.80310 | 37306 ft | 566 kts | 59° |
| 2026-05-06 12:24 | 37.31397 | 150.89298 | 37305 ft | 566 kts | 59° |
| 2026-05-06 12:24 | 37.34515 | 150.98341 | 37305 ft | 565 kts | 59° |
| 2026-05-06 12:25 | 37.37635 | 151.07382 | 37303 ft | 568 kts | 60° |
| 2026-05-06 12:25 | 37.40751 | 151.16455 | 37301 ft | 568 kts | 59° |
| 2026-05-06 12:26 | 37.43851 | 151.25549 | 37299 ft | 565 kts | 60° |
| 2026-05-06 12:26 | 37.46950 | 151.34630 | 37305 ft | 564 kts | 60° |
| 2026-05-06 12:27 | 37.50025 | 151.43666 | 37304 ft | 565 kts | 60° |
| 2026-05-06 12:27 | 37.53101 | 151.52747 | 37303 ft | 565 kts | 59° |
| 2026-05-06 12:28 | 37.56174 | 151.61839 | 37302 ft | 563 kts | 60° |
| 2026-05-06 12:28 | 37.59234 | 151.70894 | 37301 ft | 566 kts | 60° |
| 2026-05-06 12:29 | 37.62281 | 151.79982 | 37301 ft | 564 kts | 60° |
| 2026-05-06 12:29 | 37.65340 | 151.89117 | 37306 ft | 565 kts | 60° |
| 2026-05-06 12:30 | 37.68365 | 151.98193 | 37307 ft | 563 kts | 60° |
| 2026-05-06 12:30 | 37.71379 | 152.07245 | 37307 ft | 563 kts | 60° |
| 2026-05-06 12:31 | 37.74391 | 152.16324 | 37312 ft | 562 kts | 60° |
| 2026-05-06 12:31 | 37.77405 | 152.25427 | 37304 ft | 564 kts | 60° |
| 2026-05-06 12:32 | 37.80409 | 152.34547 | 37309 ft | 564 kts | 60° |
| 2026-05-06 12:32 | 37.83395 | 152.43633 | 37311 ft | 562 kts | 60° |
| 2026-05-06 12:33 | 37.86383 | 152.52742 | 37313 ft | 562 kts | 59° |
| 2026-05-06 12:33 | 37.89359 | 152.61835 | 37312 ft | 562 kts | 60° |
| 2026-05-06 12:34 | 37.92341 | 152.70996 | 37320 ft | 562 kts | 60° |
| 2026-05-06 12:34 | 37.95289 | 152.80093 | 37323 ft | 562 kts | 60° |
| 2026-05-06 12:35 | 37.98273 | 152.89308 | 37326 ft | 564 kts | 60° |
| 2026-05-06 12:35 | 38.01201 | 152.98408 | 37327 ft | 561 kts | 60° |
| 2026-05-06 12:36 | 38.04139 | 153.07548 | 37324 ft | 561 kts | 60° |
| 2026-05-06 12:36 | 38.07074 | 153.16710 | 37326 ft | 561 kts | 60° |
| 2026-05-06 12:37 | 38.09999 | 153.25845 | 37327 ft | 562 kts | 60° |
| 2026-05-06 12:37 | 38.12931 | 153.35074 | 37327 ft | 563 kts | 60° |
| 2026-05-06 12:38 | 38.15819 | 153.44200 | 37333 ft | 559 kts | 60° |
| 2026-05-06 12:38 | 38.18720 | 153.53354 | 37331 ft | 562 kts | 61° |
| 2026-05-06 12:39 | 38.21617 | 153.62544 | 37335 ft | 562 kts | 61° |
| 2026-05-06 12:39 | 38.24495 | 153.71718 | 37327 ft | 560 kts | 62° |
| 2026-05-06 12:40 | 38.27380 | 153.80920 | 37325 ft | 561 kts | 61° |
| 2026-05-06 12:40 | 38.30249 | 153.90102 | 37330 ft | 562 kts | 62° |
| 2026-05-06 12:41 | 38.33126 | 153.99352 | 37340 ft | 562 kts | 62° |
| 2026-05-06 12:41 | 38.35972 | 154.08554 | 37335 ft | 558 kts | 61° |
| 2026-05-06 12:42 | 38.38790 | 154.17664 | 37332 ft | 558 kts | 61° |
| 2026-05-06 12:42 | 38.41630 | 154.26869 | 37329 ft | 558 kts | 62° |
| 2026-05-06 12:43 | 38.44444 | 154.36029 | 37331 ft | 558 kts | 62° |
| 2026-05-06 12:43 | 38.47250 | 154.45207 | 37329 ft | 558 kts | 62° |
| 2026-05-06 12:44 | 38.50069 | 154.54454 | 37330 ft | 558 kts | 61° |
| 2026-05-06 12:44 | 38.52850 | 154.63609 | 37327 ft | 557 kts | 61° |
| 2026-05-06 12:45 | 38.55643 | 154.72827 | 37328 ft | 557 kts | 62° |
| 2026-05-06 12:46 | 38.59793 | 154.86603 | 37326 ft | 555 kts | 62° |
| 2026-05-06 12:46 | 38.62543 | 154.95743 | 37327 ft | 556 kts | 62° |
| 2026-05-06 12:47 | 38.65316 | 155.04987 | 37326 ft | 557 kts | 63° |
| 2026-05-06 12:47 | 38.68065 | 155.14220 | 37330 ft | 556 kts | 62° |
| 2026-05-06 12:48 | 38.70805 | 155.23444 | 37332 ft | 556 kts | 61° |
| 2026-05-06 12:48 | 38.73545 | 155.32677 | 37338 ft | 556 kts | 61° |
| 2026-05-06 12:49 | 38.76280 | 155.41923 | 37333 ft | 557 kts | 62° |
| 2026-05-06 12:49 | 38.78982 | 155.51131 | 37334 ft | 554 kts | 61° |
| 2026-05-06 12:50 | 38.81690 | 155.60341 | 37340 ft | 558 kts | 62° |
| 2026-05-06 12:50 | 38.84399 | 155.69626 | 37333 ft | 557 kts | 62° |
| 2026-05-06 12:51 | 38.87116 | 155.78954 | 37337 ft | 558 kts | 62° |
| 2026-05-06 12:51 | 38.89814 | 155.88238 | 37348 ft | 558 kts | 62° |
| 2026-05-06 12:52 | 38.92505 | 155.97545 | 37350 ft | 558 kts | 61° |
| 2026-05-06 12:52 | 38.95188 | 156.06863 | 37353 ft | 556 kts | 62° |
| 2026-05-06 12:53 | 38.97866 | 156.16179 | 37342 ft | 557 kts | 62° |
| 2026-05-06 12:53 | 39.00516 | 156.25432 | 37344 ft | 557 kts | 62° |
| 2026-05-06 12:54 | 39.03193 | 156.34805 | 37345 ft | 557 kts | 61° |
| 2026-05-06 12:54 | 39.05851 | 156.44148 | 37343 ft | 559 kts | 61° |
| 2026-05-06 12:55 | 39.08497 | 156.53500 | 37345 ft | 556 kts | 61° |
| 2026-05-06 12:55 | 39.11135 | 156.62842 | 37332 ft | 557 kts | 62° |
| 2026-05-06 12:56 | 39.13759 | 156.72195 | 37320 ft | 559 kts | 62° |
| 2026-05-06 12:56 | 39.16375 | 156.81535 | 37327 ft | 558 kts | 62° |
| 2026-05-06 12:57 | 39.18993 | 156.90906 | 37320 ft | 560 kts | 62° |
| 2026-05-06 12:57 | 39.21612 | 157.00333 | 37330 ft | 559 kts | 63° |
| 2026-05-06 12:58 | 39.24236 | 157.09790 | 37328 ft | 561 kts | 62° |
| 2026-05-06 12:58 | 39.26833 | 157.19203 | 37334 ft | 559 kts | 62° |
| 2026-05-06 12:59 | 39.29434 | 157.28645 | 37333 ft | 560 kts | 62° |
| 2026-05-06 12:59 | 39.31999 | 157.38031 | 37324 ft | 558 kts | 62° |
| 2026-05-06 13:00 | 39.34574 | 157.47456 | 37335 ft | 559 kts | 62° |
| 2026-05-06 13:00 | 39.37160 | 157.56957 | 37326 ft | 560 kts | 62° |
| 2026-05-06 13:01 | 39.39723 | 157.66408 | 37327 ft | 559 kts | 62° |
| 2026-05-06 13:01 | 39.42284 | 157.75873 | 37324 ft | 561 kts | 63° |
| 2026-05-06 13:02 | 39.44850 | 157.85408 | 37328 ft | 563 kts | 63° |
| 2026-05-06 13:02 | 39.47406 | 157.94961 | 37335 ft | 562 kts | 63° |
| 2026-05-06 13:03 | 39.49944 | 158.04466 | 37335 ft | 564 kts | 63° |
| 2026-05-06 13:03 | 39.52480 | 158.14020 | 37322 ft | 562 kts | 63° |
| 2026-05-06 13:04 | 39.55008 | 158.23550 | 37324 ft | 563 kts | 63° |
| 2026-05-06 13:04 | 39.57536 | 158.33125 | 37330 ft | 564 kts | 62° |
| 2026-05-06 13:05 | 39.60065 | 158.42743 | 37326 ft | 564 kts | 63° |
| 2026-05-06 13:05 | 39.62571 | 158.52312 | 37314 ft | 563 kts | 62° |
| 2026-05-06 13:06 | 39.65069 | 158.61865 | 37320 ft | 564 kts | 63° |
| 2026-05-06 13:06 | 39.67575 | 158.71512 | 37314 ft | 564 kts | 63° |
| 2026-05-06 13:07 | 39.70056 | 158.81093 | 37322 ft | 563 kts | 64° |
| 2026-05-06 13:07 | 39.72522 | 158.90674 | 37329 ft | 562 kts | 63° |
| 2026-05-06 13:08 | 39.74999 | 159.00311 | 37329 ft | 563 kts | 63° |
| 2026-05-06 13:08 | 39.77457 | 159.09898 | 37338 ft | 563 kts | 63° |
| 2026-05-06 13:09 | 39.79905 | 159.19518 | 37338 ft | 562 kts | 63° |
| 2026-05-06 13:09 | 39.82362 | 159.29169 | 37339 ft | 564 kts | 64° |
| 2026-05-06 13:10 | 39.84802 | 159.38858 | 37337 ft | 560 kts | 64° |
| 2026-05-06 13:10 | 39.87214 | 159.48439 | 37341 ft | 559 kts | 64° |
| 2026-05-06 13:11 | 39.89617 | 159.57997 | 37333 ft | 562 kts | 63° |
| 2026-05-06 13:11 | 39.92032 | 159.67667 | 37329 ft | 561 kts | 65° |
| 2026-05-06 13:12 | 39.94428 | 159.77318 | 37332 ft | 563 kts | 65° |
| 2026-05-06 13:12 | 39.96808 | 159.86984 | 37329 ft | 559 kts | 65° |
| 2026-05-06 13:13 | 39.99187 | 159.96642 | 37330 ft | 560 kts | 64° |
| 2026-05-06 13:13 | 40.01580 | 160.06238 | 37320 ft | 560 kts | 64° |
| 2026-05-06 13:14 | 40.03986 | 160.15822 | 37308 ft | 558 kts | 64° |
| 2026-05-06 13:14 | 40.05187 | 160.20628 | 37034 ft | 558 kts | 65° |
| 2026-05-06 13:14 | 40.06394 | 160.25470 | 37217 ft | 560 kts | 64° |
| 2026-05-06 13:15 | 40.08767 | 160.35106 | 37314 ft | 558 kts | 64° |
| 2026-05-06 13:15 | 40.11142 | 160.44720 | 37320 ft | 559 kts | 65° |
| 2026-05-06 13:16 | 40.13504 | 160.54359 | 37319 ft | 559 kts | 65° |
| 2026-05-06 13:16 | 40.15848 | 160.63972 | 37320 ft | 557 kts | 65° |
| 2026-05-06 13:17 | 40.18183 | 160.73584 | 37314 ft | 557 kts | 66° |
| 2026-05-06 13:17 | 40.20501 | 160.83160 | 37314 ft | 556 kts | 66° |
| 2026-05-06 13:18 | 40.22813 | 160.92764 | 37314 ft | 554 kts | 66° |
| 2026-05-06 13:18 | 40.25122 | 161.02373 | 37317 ft | 555 kts | 66° |
| 2026-05-06 13:19 | 40.27420 | 161.11998 | 37318 ft | 553 kts | 66° |
| 2026-05-06 13:19 | 40.29695 | 161.21547 | 37317 ft | 553 kts | 66° |
| 2026-05-06 13:20 | 40.31967 | 161.31123 | 37319 ft | 552 kts | 66° |
| 2026-05-06 13:20 | 40.34238 | 161.40733 | 37319 ft | 553 kts | 66° |
| 2026-05-06 13:21 | 40.36493 | 161.50322 | 37319 ft | 553 kts | 66° |
| 2026-05-06 13:21 | 40.38730 | 161.59880 | 37316 ft | 552 kts | 66° |
| 2026-05-06 13:22 | 40.40969 | 161.69472 | 37314 ft | 551 kts | 67° |
| 2026-05-06 13:22 | 40.43192 | 161.79024 | 37318 ft | 552 kts | 67° |
| 2026-05-06 13:23 | 40.45420 | 161.88663 | 37315 ft | 551 kts | 67° |
| 2026-05-06 13:23 | 40.47620 | 161.98213 | 37318 ft | 551 kts | 67° |
| 2026-05-06 13:24 | 40.49817 | 162.07808 | 37314 ft | 548 kts | 68° |
| 2026-05-06 13:24 | 40.52002 | 162.17378 | 37313 ft | 548 kts | 67° |
| 2026-05-06 13:25 | 40.54171 | 162.26912 | 37308 ft | 547 kts | 68° |
| 2026-05-06 13:25 | 40.56348 | 162.36507 | 37308 ft | 548 kts | 68° |
| 2026-05-06 13:26 | 40.58496 | 162.46051 | 37309 ft | 547 kts | 68° |
| 2026-05-06 13:26 | 40.60641 | 162.55600 | 37304 ft | 547 kts | 68° |
| 2026-05-06 13:27 | 40.62776 | 162.65164 | 37301 ft | 546 kts | 68° |
| 2026-05-06 13:27 | 40.64904 | 162.74727 | 37306 ft | 546 kts | 68° |
| 2026-05-06 13:28 | 40.67021 | 162.84294 | 37308 ft | 544 kts | 68° |
| 2026-05-06 13:28 | 40.69129 | 162.93843 | 37300 ft | 544 kts | 68° |
| 2026-05-06 13:29 | 40.71209 | 163.03316 | 37296 ft | 542 kts | 68° |
| 2026-05-06 13:29 | 40.73296 | 163.12865 | 37299 ft | 542 kts | 69° |
| 2026-05-06 13:30 | 40.75361 | 163.22340 | 37300 ft | 542 kts | 68° |
| 2026-05-06 13:30 | 40.77429 | 163.31882 | 37301 ft | 541 kts | 69° |